<gpx creator="Cyclotour.ca" version="1.1" xmlns:gpsies="http://www.gpsies.com/GPX/1/0" xmlns:xsi="http://www.w3.org/2001/XMLSchema-instance" xmlns="http://www.topografix.com/GPX/1/1" xsi:schemaLocation="http://www.topografix.com/GPX/1/1 http://www.topografix.com/GPX/1/1/gpx.xsd http://www.gpsies.com/GPX/1/0 http://www.gpsies.com/gpsies.xsd">
<trk>
<name>Trois-Rivières - St-Thomas-de-Caxton ( via Yamachiche )  2022</name>
<trkseg>
<trkpt lat="46.315760000" lon="-72.568850000">
<ele>0</ele>
<time>2026-09-04T07:13:29Z</time>
</trkpt>
<trkpt lat="46.315490000" lon="-72.568430000">
<ele>0</ele>
<time>2026-09-04T07:13:30Z</time>
</trkpt>
<trkpt lat="46.315490000" lon="-72.568430000">
<ele>0</ele>
<time>2026-09-04T07:13:31Z</time>
</trkpt>
<trkpt lat="46.314130000" lon="-72.569800000">
<ele>0</ele>
<time>2026-09-04T07:13:32Z</time>
</trkpt>
<trkpt lat="46.314040000" lon="-72.569840000">
<ele>0</ele>
<time>2026-09-04T07:13:33Z</time>
</trkpt>
<trkpt lat="46.313950000" lon="-72.569800000">
<ele>0</ele>
<time>2026-09-04T07:13:34Z</time>
</trkpt>
<trkpt lat="46.313930000" lon="-72.569820000">
<ele>0</ele>
<time>2026-09-04T07:13:35Z</time>
</trkpt>
<trkpt lat="46.313930000" lon="-72.569820000">
<ele>0</ele>
<time>2026-09-04T07:13:36Z</time>
</trkpt>
<trkpt lat="46.313360000" lon="-72.570580000">
<ele>0</ele>
<time>2026-09-04T07:13:37Z</time>
</trkpt>
<trkpt lat="46.313140000" lon="-72.571060000">
<ele>0</ele>
<time>2026-09-04T07:13:38Z</time>
</trkpt>
<trkpt lat="46.313050000" lon="-72.571170000">
<ele>0</ele>
<time>2026-09-04T07:13:39Z</time>
</trkpt>
<trkpt lat="46.312960000" lon="-72.571280000">
<ele>0</ele>
<time>2026-09-04T07:13:40Z</time>
</trkpt>
<trkpt lat="46.312900000" lon="-72.571300000">
<ele>0</ele>
<time>2026-09-04T07:13:41Z</time>
</trkpt>
<trkpt lat="46.312640000" lon="-72.571050000">
<ele>0</ele>
<time>2026-09-04T07:13:42Z</time>
</trkpt>
<trkpt lat="46.312590000" lon="-72.571020000">
<ele>0</ele>
<time>2026-09-04T07:13:43Z</time>
</trkpt>
<trkpt lat="46.312530000" lon="-72.571040000">
<ele>0</ele>
<time>2026-09-04T07:13:44Z</time>
</trkpt>
<trkpt lat="46.312450000" lon="-72.571090000">
<ele>0</ele>
<time>2026-09-04T07:13:45Z</time>
</trkpt>
<trkpt lat="46.312390000" lon="-72.571100000">
<ele>0</ele>
<time>2026-09-04T07:13:46Z</time>
</trkpt>
<trkpt lat="46.312150000" lon="-72.570780000">
<ele>0</ele>
<time>2026-09-04T07:13:47Z</time>
</trkpt>
<trkpt lat="46.311950000" lon="-72.570460000">
<ele>0</ele>
<time>2026-09-04T07:13:48Z</time>
</trkpt>
<trkpt lat="46.311650000" lon="-72.569970000">
<ele>0</ele>
<time>2026-09-04T07:13:49Z</time>
</trkpt>
<trkpt lat="46.311620000" lon="-72.570000000">
<ele>0</ele>
<time>2026-09-04T07:13:50Z</time>
</trkpt>
<trkpt lat="46.311620000" lon="-72.570000000">
<ele>0</ele>
<time>2026-09-04T07:13:51Z</time>
</trkpt>
<trkpt lat="46.310760000" lon="-72.571000000">
<ele>0</ele>
<time>2026-09-04T07:13:52Z</time>
</trkpt>
<trkpt lat="46.310020000" lon="-72.571770000">
<ele>0</ele>
<time>2026-09-04T07:13:53Z</time>
</trkpt>
<trkpt lat="46.308930000" lon="-72.573040000">
<ele>0</ele>
<time>2026-09-04T07:13:54Z</time>
</trkpt>
<trkpt lat="46.308960000" lon="-72.573080000">
<ele>0</ele>
<time>2026-09-04T07:13:55Z</time>
</trkpt>
<trkpt lat="46.308960000" lon="-72.573080000">
<ele>0</ele>
<time>2026-09-04T07:13:56Z</time>
</trkpt>
<trkpt lat="46.309410000" lon="-72.573810000">
<ele>0</ele>
<time>2026-09-04T07:13:57Z</time>
</trkpt>
<trkpt lat="46.309340000" lon="-72.573860000">
<ele>0</ele>
<time>2026-09-04T07:13:58Z</time>
</trkpt>
<trkpt lat="46.309340000" lon="-72.573860000">
<ele>0</ele>
<time>2026-09-04T07:13:59Z</time>
</trkpt>
<trkpt lat="46.309260000" lon="-72.573920000">
<ele>0</ele>
<time>2026-09-04T07:14:00Z</time>
</trkpt>
<trkpt lat="46.309170000" lon="-72.574050000">
<ele>0</ele>
<time>2026-09-04T07:14:01Z</time>
</trkpt>
<trkpt lat="46.308930000" lon="-72.574520000">
<ele>0</ele>
<time>2026-09-04T07:14:02Z</time>
</trkpt>
<trkpt lat="46.308850000" lon="-72.574740000">
<ele>0</ele>
<time>2026-09-04T07:14:03Z</time>
</trkpt>
<trkpt lat="46.308790000" lon="-72.575100000">
<ele>0</ele>
<time>2026-09-04T07:14:04Z</time>
</trkpt>
<trkpt lat="46.308570000" lon="-72.575450000">
<ele>0</ele>
<time>2026-09-04T07:14:05Z</time>
</trkpt>
<trkpt lat="46.307190000" lon="-72.577280000">
<ele>0</ele>
<time>2026-09-04T07:14:06Z</time>
</trkpt>
<trkpt lat="46.307090000" lon="-72.577320000">
<ele>0</ele>
<time>2026-09-04T07:14:07Z</time>
</trkpt>
<trkpt lat="46.306960000" lon="-72.577240000">
<ele>0</ele>
<time>2026-09-04T07:14:08Z</time>
</trkpt>
<trkpt lat="46.306360000" lon="-72.576310000">
<ele>0</ele>
<time>2026-09-04T07:14:09Z</time>
</trkpt>
<trkpt lat="46.306320000" lon="-72.576280000">
<ele>0</ele>
<time>2026-09-04T07:14:10Z</time>
</trkpt>
<trkpt lat="46.306250000" lon="-72.576260000">
<ele>0</ele>
<time>2026-09-04T07:14:11Z</time>
</trkpt>
<trkpt lat="46.306210000" lon="-72.576290000">
<ele>0</ele>
<time>2026-09-04T07:14:12Z</time>
</trkpt>
<trkpt lat="46.305960000" lon="-72.576660000">
<ele>0</ele>
<time>2026-09-04T07:14:13Z</time>
</trkpt>
<trkpt lat="46.305130000" lon="-72.577840000">
<ele>0</ele>
<time>2026-09-04T07:14:14Z</time>
</trkpt>
<trkpt lat="46.305080000" lon="-72.577990000">
<ele>0</ele>
<time>2026-09-04T07:14:15Z</time>
</trkpt>
<trkpt lat="46.305090000" lon="-72.578100000">
<ele>0</ele>
<time>2026-09-04T07:14:16Z</time>
</trkpt>
<trkpt lat="46.305140000" lon="-72.578190000">
<ele>0</ele>
<time>2026-09-04T07:14:17Z</time>
</trkpt>
<trkpt lat="46.305140000" lon="-72.578190000">
<ele>0</ele>
<time>2026-09-04T07:14:18Z</time>
</trkpt>
<trkpt lat="46.307320000" lon="-72.581550000">
<ele>0</ele>
<time>2026-09-04T07:14:19Z</time>
</trkpt>
<trkpt lat="46.308740000" lon="-72.583790000">
<ele>0</ele>
<time>2026-09-04T07:14:20Z</time>
</trkpt>
<trkpt lat="46.308330000" lon="-72.584570000">
<ele>0</ele>
<time>2026-09-04T07:14:21Z</time>
</trkpt>
<trkpt lat="46.308310000" lon="-72.584610000">
<ele>0</ele>
<time>2026-09-04T07:14:22Z</time>
</trkpt>
<trkpt lat="46.308310000" lon="-72.584610000">
<ele>0</ele>
<time>2026-09-04T07:14:23Z</time>
</trkpt>
<trkpt lat="46.306660000" lon="-72.587960000">
<ele>0</ele>
<time>2026-09-04T07:14:24Z</time>
</trkpt>
<trkpt lat="46.304890000" lon="-72.591630000">
<ele>0</ele>
<time>2026-09-04T07:14:25Z</time>
</trkpt>
<trkpt lat="46.304590000" lon="-72.592220000">
<ele>0</ele>
<time>2026-09-04T07:14:26Z</time>
</trkpt>
<trkpt lat="46.304180000" lon="-72.592970000">
<ele>0</ele>
<time>2026-09-04T07:14:27Z</time>
</trkpt>
<trkpt lat="46.303730000" lon="-72.593740000">
<ele>0</ele>
<time>2026-09-04T07:14:28Z</time>
</trkpt>
<trkpt lat="46.303020000" lon="-72.595030000">
<ele>0</ele>
<time>2026-09-04T07:14:29Z</time>
</trkpt>
<trkpt lat="46.302590000" lon="-72.595950000">
<ele>0</ele>
<time>2026-09-04T07:14:30Z</time>
</trkpt>
<trkpt lat="46.302250000" lon="-72.596770000">
<ele>0</ele>
<time>2026-09-04T07:14:31Z</time>
</trkpt>
<trkpt lat="46.301990000" lon="-72.597510000">
<ele>0</ele>
<time>2026-09-04T07:14:32Z</time>
</trkpt>
<trkpt lat="46.301230000" lon="-72.599970000">
<ele>0</ele>
<time>2026-09-04T07:14:33Z</time>
</trkpt>
<trkpt lat="46.301030000" lon="-72.600650000">
<ele>0</ele>
<time>2026-09-04T07:14:34Z</time>
</trkpt>
<trkpt lat="46.300930000" lon="-72.600970000">
<ele>0</ele>
<time>2026-09-04T07:14:35Z</time>
</trkpt>
<trkpt lat="46.300560000" lon="-72.602460000">
<ele>0</ele>
<time>2026-09-04T07:14:36Z</time>
</trkpt>
<trkpt lat="46.300060000" lon="-72.604480000">
<ele>0</ele>
<time>2026-09-04T07:14:37Z</time>
</trkpt>
<trkpt lat="46.299390000" lon="-72.606520000">
<ele>0</ele>
<time>2026-09-04T07:14:38Z</time>
</trkpt>
<trkpt lat="46.299060000" lon="-72.607950000">
<ele>0</ele>
<time>2026-09-04T07:14:39Z</time>
</trkpt>
<trkpt lat="46.298790000" lon="-72.609200000">
<ele>0</ele>
<time>2026-09-04T07:14:40Z</time>
</trkpt>
<trkpt lat="46.297450000" lon="-72.614510000">
<ele>0</ele>
<time>2026-09-04T07:14:41Z</time>
</trkpt>
<trkpt lat="46.297210000" lon="-72.615410000">
<ele>0</ele>
<time>2026-09-04T07:14:42Z</time>
</trkpt>
<trkpt lat="46.296980000" lon="-72.616110000">
<ele>0</ele>
<time>2026-09-04T07:14:43Z</time>
</trkpt>
<trkpt lat="46.296750000" lon="-72.616680000">
<ele>0</ele>
<time>2026-09-04T07:14:44Z</time>
</trkpt>
<trkpt lat="46.296610000" lon="-72.617010000">
<ele>0</ele>
<time>2026-09-04T07:14:45Z</time>
</trkpt>
<trkpt lat="46.296320000" lon="-72.617540000">
<ele>0</ele>
<time>2026-09-04T07:14:46Z</time>
</trkpt>
<trkpt lat="46.296030000" lon="-72.617990000">
<ele>0</ele>
<time>2026-09-04T07:14:47Z</time>
</trkpt>
<trkpt lat="46.295430000" lon="-72.618890000">
<ele>0</ele>
<time>2026-09-04T07:14:48Z</time>
</trkpt>
<trkpt lat="46.294950000" lon="-72.619680000">
<ele>0</ele>
<time>2026-09-04T07:14:49Z</time>
</trkpt>
<trkpt lat="46.294240000" lon="-72.620980000">
<ele>0</ele>
<time>2026-09-04T07:14:50Z</time>
</trkpt>
<trkpt lat="46.293380000" lon="-72.622540000">
<ele>0</ele>
<time>2026-09-04T07:14:51Z</time>
</trkpt>
<trkpt lat="46.292800000" lon="-72.623640000">
<ele>0</ele>
<time>2026-09-04T07:14:52Z</time>
</trkpt>
<trkpt lat="46.292600000" lon="-72.624090000">
<ele>0</ele>
<time>2026-09-04T07:14:53Z</time>
</trkpt>
<trkpt lat="46.292330000" lon="-72.624790000">
<ele>0</ele>
<time>2026-09-04T07:14:54Z</time>
</trkpt>
<trkpt lat="46.292140000" lon="-72.625480000">
<ele>0</ele>
<time>2026-09-04T07:14:55Z</time>
</trkpt>
<trkpt lat="46.291970000" lon="-72.626430000">
<ele>0</ele>
<time>2026-09-04T07:14:56Z</time>
</trkpt>
<trkpt lat="46.291790000" lon="-72.627230000">
<ele>0</ele>
<time>2026-09-04T07:14:57Z</time>
</trkpt>
<trkpt lat="46.291320000" lon="-72.628920000">
<ele>0</ele>
<time>2026-09-04T07:14:58Z</time>
</trkpt>
<trkpt lat="46.290850000" lon="-72.630580000">
<ele>0</ele>
<time>2026-09-04T07:14:59Z</time>
</trkpt>
<trkpt lat="46.290630000" lon="-72.631290000">
<ele>0</ele>
<time>2026-09-04T07:15:00Z</time>
</trkpt>
<trkpt lat="46.290350000" lon="-72.632080000">
<ele>0</ele>
<time>2026-09-04T07:15:01Z</time>
</trkpt>
<trkpt lat="46.290200000" lon="-72.632510000">
<ele>0</ele>
<time>2026-09-04T07:15:02Z</time>
</trkpt>
<trkpt lat="46.290060000" lon="-72.633060000">
<ele>0</ele>
<time>2026-09-04T07:15:03Z</time>
</trkpt>
<trkpt lat="46.289720000" lon="-72.635440000">
<ele>0</ele>
<time>2026-09-04T07:15:04Z</time>
</trkpt>
<trkpt lat="46.289530000" lon="-72.636460000">
<ele>0</ele>
<time>2026-09-04T07:15:05Z</time>
</trkpt>
<trkpt lat="46.289480000" lon="-72.636660000">
<ele>0</ele>
<time>2026-09-04T07:15:06Z</time>
</trkpt>
<trkpt lat="46.289260000" lon="-72.637430000">
<ele>0</ele>
<time>2026-09-04T07:15:07Z</time>
</trkpt>
<trkpt lat="46.289150000" lon="-72.637900000">
<ele>0</ele>
<time>2026-09-04T07:15:08Z</time>
</trkpt>
<trkpt lat="46.288960000" lon="-72.638900000">
<ele>0</ele>
<time>2026-09-04T07:15:09Z</time>
</trkpt>
<trkpt lat="46.288840000" lon="-72.639350000">
<ele>0</ele>
<time>2026-09-04T07:15:10Z</time>
</trkpt>
<trkpt lat="46.288520000" lon="-72.640270000">
<ele>0</ele>
<time>2026-09-04T07:15:11Z</time>
</trkpt>
<trkpt lat="46.287120000" lon="-72.644300000">
<ele>0</ele>
<time>2026-09-04T07:15:12Z</time>
</trkpt>
<trkpt lat="46.287010000" lon="-72.644650000">
<ele>0</ele>
<time>2026-09-04T07:15:13Z</time>
</trkpt>
<trkpt lat="46.286950000" lon="-72.644950000">
<ele>0</ele>
<time>2026-09-04T07:15:14Z</time>
</trkpt>
<trkpt lat="46.286890000" lon="-72.645590000">
<ele>0</ele>
<time>2026-09-04T07:15:15Z</time>
</trkpt>
<trkpt lat="46.286910000" lon="-72.646130000">
<ele>0</ele>
<time>2026-09-04T07:15:16Z</time>
</trkpt>
<trkpt lat="46.287050000" lon="-72.647450000">
<ele>0</ele>
<time>2026-09-04T07:15:17Z</time>
</trkpt>
<trkpt lat="46.287170000" lon="-72.648540000">
<ele>0</ele>
<time>2026-09-04T07:15:18Z</time>
</trkpt>
<trkpt lat="46.287320000" lon="-72.650190000">
<ele>0</ele>
<time>2026-09-04T07:15:19Z</time>
</trkpt>
<trkpt lat="46.287310000" lon="-72.650770000">
<ele>0</ele>
<time>2026-09-04T07:15:20Z</time>
</trkpt>
<trkpt lat="46.287260000" lon="-72.651300000">
<ele>0</ele>
<time>2026-09-04T07:15:21Z</time>
</trkpt>
<trkpt lat="46.287160000" lon="-72.651850000">
<ele>0</ele>
<time>2026-09-04T07:15:22Z</time>
</trkpt>
<trkpt lat="46.287010000" lon="-72.652520000">
<ele>0</ele>
<time>2026-09-04T07:15:23Z</time>
</trkpt>
<trkpt lat="46.287010000" lon="-72.652520000">
<ele>0</ele>
<time>2026-09-04T07:15:24Z</time>
</trkpt>
<trkpt lat="46.287030000" lon="-72.652450000">
<ele>0</ele>
<time>2026-09-04T07:15:25Z</time>
</trkpt>
<trkpt lat="46.287300000" lon="-72.652610000">
<ele>0</ele>
<time>2026-09-04T07:15:26Z</time>
</trkpt>
<trkpt lat="46.287500000" lon="-72.652860000">
<ele>0</ele>
<time>2026-09-04T07:15:27Z</time>
</trkpt>
<trkpt lat="46.288100000" lon="-72.653800000">
<ele>0</ele>
<time>2026-09-04T07:15:28Z</time>
</trkpt>
<trkpt lat="46.289330000" lon="-72.655700000">
<ele>0</ele>
<time>2026-09-04T07:15:29Z</time>
</trkpt>
<trkpt lat="46.290310000" lon="-72.657220000">
<ele>0</ele>
<time>2026-09-04T07:15:30Z</time>
</trkpt>
<trkpt lat="46.291100000" lon="-72.658450000">
<ele>0</ele>
<time>2026-09-04T07:15:31Z</time>
</trkpt>
<trkpt lat="46.292390000" lon="-72.660390000">
<ele>0</ele>
<time>2026-09-04T07:15:32Z</time>
</trkpt>
<trkpt lat="46.293020000" lon="-72.661380000">
<ele>0</ele>
<time>2026-09-04T07:15:33Z</time>
</trkpt>
<trkpt lat="46.293090000" lon="-72.661580000">
<ele>0</ele>
<time>2026-09-04T07:15:34Z</time>
</trkpt>
<trkpt lat="46.293190000" lon="-72.661990000">
<ele>0</ele>
<time>2026-09-04T07:15:35Z</time>
</trkpt>
<trkpt lat="46.293250000" lon="-72.663260000">
<ele>0</ele>
<time>2026-09-04T07:15:36Z</time>
</trkpt>
<trkpt lat="46.293290000" lon="-72.664210000">
<ele>0</ele>
<time>2026-09-04T07:15:37Z</time>
</trkpt>
<trkpt lat="46.293350000" lon="-72.667740000">
<ele>0</ele>
<time>2026-09-04T07:15:38Z</time>
</trkpt>
<trkpt lat="46.293380000" lon="-72.668560000">
<ele>0</ele>
<time>2026-09-04T07:15:39Z</time>
</trkpt>
<trkpt lat="46.293390000" lon="-72.669020000">
<ele>0</ele>
<time>2026-09-04T07:15:40Z</time>
</trkpt>
<trkpt lat="46.293340000" lon="-72.669060000">
<ele>0</ele>
<time>2026-09-04T07:15:41Z</time>
</trkpt>
<trkpt lat="46.293340000" lon="-72.669060000">
<ele>0</ele>
<time>2026-09-04T07:15:42Z</time>
</trkpt>
<trkpt lat="46.292860000" lon="-72.669410000">
<ele>0</ele>
<time>2026-09-04T07:15:43Z</time>
</trkpt>
<trkpt lat="46.292460000" lon="-72.669780000">
<ele>0</ele>
<time>2026-09-04T07:15:44Z</time>
</trkpt>
<trkpt lat="46.292290000" lon="-72.669940000">
<ele>0</ele>
<time>2026-09-04T07:15:45Z</time>
</trkpt>
<trkpt lat="46.292000000" lon="-72.670290000">
<ele>0</ele>
<time>2026-09-04T07:15:46Z</time>
</trkpt>
<trkpt lat="46.291210000" lon="-72.671290000">
<ele>0</ele>
<time>2026-09-04T07:15:47Z</time>
</trkpt>
<trkpt lat="46.290080000" lon="-72.672950000">
<ele>0</ele>
<time>2026-09-04T07:15:48Z</time>
</trkpt>
<trkpt lat="46.289200000" lon="-72.674260000">
<ele>0</ele>
<time>2026-09-04T07:15:49Z</time>
</trkpt>
<trkpt lat="46.289080000" lon="-72.674480000">
<ele>0</ele>
<time>2026-09-04T07:15:50Z</time>
</trkpt>
<trkpt lat="46.288770000" lon="-72.675330000">
<ele>0</ele>
<time>2026-09-04T07:15:51Z</time>
</trkpt>
<trkpt lat="46.288130000" lon="-72.677170000">
<ele>0</ele>
<time>2026-09-04T07:15:52Z</time>
</trkpt>
<trkpt lat="46.287940000" lon="-72.677810000">
<ele>0</ele>
<time>2026-09-04T07:15:53Z</time>
</trkpt>
<trkpt lat="46.287810000" lon="-72.678450000">
<ele>0</ele>
<time>2026-09-04T07:15:54Z</time>
</trkpt>
<trkpt lat="46.287730000" lon="-72.679310000">
<ele>0</ele>
<time>2026-09-04T07:15:55Z</time>
</trkpt>
<trkpt lat="46.287660000" lon="-72.680010000">
<ele>0</ele>
<time>2026-09-04T07:15:56Z</time>
</trkpt>
<trkpt lat="46.287570000" lon="-72.680520000">
<ele>0</ele>
<time>2026-09-04T07:15:57Z</time>
</trkpt>
<trkpt lat="46.287150000" lon="-72.682120000">
<ele>0</ele>
<time>2026-09-04T07:15:58Z</time>
</trkpt>
<trkpt lat="46.287330000" lon="-72.682280000">
<ele>0</ele>
<time>2026-09-04T07:15:59Z</time>
</trkpt>
<trkpt lat="46.287330000" lon="-72.682280000">
<ele>0</ele>
<time>2026-09-04T07:16:00Z</time>
</trkpt>
<trkpt lat="46.287580000" lon="-72.682500000">
<ele>0</ele>
<time>2026-09-04T07:16:01Z</time>
</trkpt>
<trkpt lat="46.287840000" lon="-72.682820000">
<ele>0</ele>
<time>2026-09-04T07:16:02Z</time>
</trkpt>
<trkpt lat="46.288510000" lon="-72.684140000">
<ele>0</ele>
<time>2026-09-04T07:16:03Z</time>
</trkpt>
<trkpt lat="46.289390000" lon="-72.685910000">
<ele>0</ele>
<time>2026-09-04T07:16:04Z</time>
</trkpt>
<trkpt lat="46.289890000" lon="-72.686960000">
<ele>0</ele>
<time>2026-09-04T07:16:05Z</time>
</trkpt>
<trkpt lat="46.290390000" lon="-72.687920000">
<ele>0</ele>
<time>2026-09-04T07:16:06Z</time>
</trkpt>
<trkpt lat="46.290600000" lon="-72.688280000">
<ele>0</ele>
<time>2026-09-04T07:16:07Z</time>
</trkpt>
<trkpt lat="46.290780000" lon="-72.688530000">
<ele>0</ele>
<time>2026-09-04T07:16:08Z</time>
</trkpt>
<trkpt lat="46.291110000" lon="-72.688880000">
<ele>0</ele>
<time>2026-09-04T07:16:09Z</time>
</trkpt>
<trkpt lat="46.291400000" lon="-72.689090000">
<ele>0</ele>
<time>2026-09-04T07:16:10Z</time>
</trkpt>
<trkpt lat="46.291820000" lon="-72.689320000">
<ele>0</ele>
<time>2026-09-04T07:16:11Z</time>
</trkpt>
<trkpt lat="46.293700000" lon="-72.689910000">
<ele>0</ele>
<time>2026-09-04T07:16:12Z</time>
</trkpt>
<trkpt lat="46.295640000" lon="-72.690510000">
<ele>0</ele>
<time>2026-09-04T07:16:13Z</time>
</trkpt>
<trkpt lat="46.296730000" lon="-72.690840000">
<ele>0</ele>
<time>2026-09-04T07:16:14Z</time>
</trkpt>
<trkpt lat="46.297260000" lon="-72.690940000">
<ele>0</ele>
<time>2026-09-04T07:16:15Z</time>
</trkpt>
<trkpt lat="46.297910000" lon="-72.691020000">
<ele>0</ele>
<time>2026-09-04T07:16:16Z</time>
</trkpt>
<trkpt lat="46.299170000" lon="-72.691120000">
<ele>0</ele>
<time>2026-09-04T07:16:17Z</time>
</trkpt>
<trkpt lat="46.299780000" lon="-72.691170000">
<ele>0</ele>
<time>2026-09-04T07:16:18Z</time>
</trkpt>
<trkpt lat="46.300680000" lon="-72.691280000">
<ele>0</ele>
<time>2026-09-04T07:16:19Z</time>
</trkpt>
<trkpt lat="46.301540000" lon="-72.691420000">
<ele>0</ele>
<time>2026-09-04T07:16:20Z</time>
</trkpt>
<trkpt lat="46.301980000" lon="-72.691520000">
<ele>0</ele>
<time>2026-09-04T07:16:21Z</time>
</trkpt>
<trkpt lat="46.303910000" lon="-72.691970000">
<ele>0</ele>
<time>2026-09-04T07:16:22Z</time>
</trkpt>
<trkpt lat="46.304200000" lon="-72.692040000">
<ele>0</ele>
<time>2026-09-04T07:16:23Z</time>
</trkpt>
<trkpt lat="46.304220000" lon="-72.692130000">
<ele>0</ele>
<time>2026-09-04T07:16:24Z</time>
</trkpt>
<trkpt lat="46.304220000" lon="-72.692130000">
<ele>0</ele>
<time>2026-09-04T07:16:25Z</time>
</trkpt>
<trkpt lat="46.304250000" lon="-72.692230000">
<ele>0</ele>
<time>2026-09-04T07:16:26Z</time>
</trkpt>
<trkpt lat="46.304200000" lon="-72.692660000">
<ele>0</ele>
<time>2026-09-04T07:16:27Z</time>
</trkpt>
<trkpt lat="46.304200000" lon="-72.692920000">
<ele>0</ele>
<time>2026-09-04T07:16:28Z</time>
</trkpt>
<trkpt lat="46.304210000" lon="-72.693180000">
<ele>0</ele>
<time>2026-09-04T07:16:29Z</time>
</trkpt>
<trkpt lat="46.304300000" lon="-72.693590000">
<ele>0</ele>
<time>2026-09-04T07:16:30Z</time>
</trkpt>
<trkpt lat="46.304920000" lon="-72.695180000">
<ele>0</ele>
<time>2026-09-04T07:16:31Z</time>
</trkpt>
<trkpt lat="46.305420000" lon="-72.696660000">
<ele>0</ele>
<time>2026-09-04T07:16:32Z</time>
</trkpt>
<trkpt lat="46.306150000" lon="-72.698830000">
<ele>0</ele>
<time>2026-09-04T07:16:33Z</time>
</trkpt>
<trkpt lat="46.306770000" lon="-72.700630000">
<ele>0</ele>
<time>2026-09-04T07:16:34Z</time>
</trkpt>
<trkpt lat="46.306960000" lon="-72.701180000">
<ele>0</ele>
<time>2026-09-04T07:16:35Z</time>
</trkpt>
<trkpt lat="46.307030000" lon="-72.701420000">
<ele>0</ele>
<time>2026-09-04T07:16:36Z</time>
</trkpt>
<trkpt lat="46.307050000" lon="-72.701620000">
<ele>0</ele>
<time>2026-09-04T07:16:37Z</time>
</trkpt>
<trkpt lat="46.307040000" lon="-72.701810000">
<ele>0</ele>
<time>2026-09-04T07:16:38Z</time>
</trkpt>
<trkpt lat="46.306890000" lon="-72.702310000">
<ele>0</ele>
<time>2026-09-04T07:16:39Z</time>
</trkpt>
<trkpt lat="46.306050000" lon="-72.704210000">
<ele>0</ele>
<time>2026-09-04T07:16:40Z</time>
</trkpt>
<trkpt lat="46.305460000" lon="-72.705670000">
<ele>0</ele>
<time>2026-09-04T07:16:41Z</time>
</trkpt>
<trkpt lat="46.304810000" lon="-72.707280000">
<ele>0</ele>
<time>2026-09-04T07:16:42Z</time>
</trkpt>
<trkpt lat="46.303830000" lon="-72.709740000">
<ele>0</ele>
<time>2026-09-04T07:16:43Z</time>
</trkpt>
<trkpt lat="46.302830000" lon="-72.712190000">
<ele>0</ele>
<time>2026-09-04T07:16:44Z</time>
</trkpt>
<trkpt lat="46.302370000" lon="-72.713300000">
<ele>0</ele>
<time>2026-09-04T07:16:45Z</time>
</trkpt>
<trkpt lat="46.302040000" lon="-72.714180000">
<ele>0</ele>
<time>2026-09-04T07:16:46Z</time>
</trkpt>
<trkpt lat="46.301980000" lon="-72.714490000">
<ele>0</ele>
<time>2026-09-04T07:16:47Z</time>
</trkpt>
<trkpt lat="46.301960000" lon="-72.714980000">
<ele>0</ele>
<time>2026-09-04T07:16:48Z</time>
</trkpt>
<trkpt lat="46.301990000" lon="-72.715250000">
<ele>0</ele>
<time>2026-09-04T07:16:49Z</time>
</trkpt>
<trkpt lat="46.302190000" lon="-72.716720000">
<ele>0</ele>
<time>2026-09-04T07:16:50Z</time>
</trkpt>
<trkpt lat="46.302290000" lon="-72.717550000">
<ele>0</ele>
<time>2026-09-04T07:16:51Z</time>
</trkpt>
<trkpt lat="46.302410000" lon="-72.718580000">
<ele>0</ele>
<time>2026-09-04T07:16:52Z</time>
</trkpt>
<trkpt lat="46.302570000" lon="-72.719730000">
<ele>0</ele>
<time>2026-09-04T07:16:53Z</time>
</trkpt>
<trkpt lat="46.302590000" lon="-72.720170000">
<ele>0</ele>
<time>2026-09-04T07:16:54Z</time>
</trkpt>
<trkpt lat="46.302580000" lon="-72.720610000">
<ele>0</ele>
<time>2026-09-04T07:16:55Z</time>
</trkpt>
<trkpt lat="46.302470000" lon="-72.721380000">
<ele>0</ele>
<time>2026-09-04T07:16:56Z</time>
</trkpt>
<trkpt lat="46.302210000" lon="-72.722640000">
<ele>0</ele>
<time>2026-09-04T07:16:57Z</time>
</trkpt>
<trkpt lat="46.302010000" lon="-72.723430000">
<ele>0</ele>
<time>2026-09-04T07:16:58Z</time>
</trkpt>
<trkpt lat="46.301880000" lon="-72.723860000">
<ele>0</ele>
<time>2026-09-04T07:16:59Z</time>
</trkpt>
<trkpt lat="46.301450000" lon="-72.725000000">
<ele>0</ele>
<time>2026-09-04T07:17:00Z</time>
</trkpt>
<trkpt lat="46.300920000" lon="-72.726370000">
<ele>0</ele>
<time>2026-09-04T07:17:01Z</time>
</trkpt>
<trkpt lat="46.300780000" lon="-72.726740000">
<ele>0</ele>
<time>2026-09-04T07:17:02Z</time>
</trkpt>
<trkpt lat="46.300920000" lon="-72.726850000">
<ele>0</ele>
<time>2026-09-04T07:17:03Z</time>
</trkpt>
<trkpt lat="46.300920000" lon="-72.726850000">
<ele>0</ele>
<time>2026-09-04T07:17:04Z</time>
</trkpt>
<trkpt lat="46.302010000" lon="-72.727760000">
<ele>0</ele>
<time>2026-09-04T07:17:05Z</time>
</trkpt>
<trkpt lat="46.302120000" lon="-72.727920000">
<ele>0</ele>
<time>2026-09-04T07:17:06Z</time>
</trkpt>
<trkpt lat="46.302230000" lon="-72.728150000">
<ele>0</ele>
<time>2026-09-04T07:17:07Z</time>
</trkpt>
<trkpt lat="46.302260000" lon="-72.728270000">
<ele>0</ele>
<time>2026-09-04T07:17:08Z</time>
</trkpt>
<trkpt lat="46.302260000" lon="-72.728270000">
<ele>0</ele>
<time>2026-09-04T07:17:09Z</time>
</trkpt>
<trkpt lat="46.302320000" lon="-72.728640000">
<ele>0</ele>
<time>2026-09-04T07:17:10Z</time>
</trkpt>
<trkpt lat="46.302380000" lon="-72.729180000">
<ele>0</ele>
<time>2026-09-04T07:17:11Z</time>
</trkpt>
<trkpt lat="46.302430000" lon="-72.729750000">
<ele>0</ele>
<time>2026-09-04T07:17:12Z</time>
</trkpt>
<trkpt lat="46.302580000" lon="-72.730710000">
<ele>0</ele>
<time>2026-09-04T07:17:13Z</time>
</trkpt>
<trkpt lat="46.302610000" lon="-72.730970000">
<ele>0</ele>
<time>2026-09-04T07:17:14Z</time>
</trkpt>
<trkpt lat="46.302670000" lon="-72.731620000">
<ele>0</ele>
<time>2026-09-04T07:17:15Z</time>
</trkpt>
<trkpt lat="46.302740000" lon="-72.732610000">
<ele>0</ele>
<time>2026-09-04T07:17:16Z</time>
</trkpt>
<trkpt lat="46.302740000" lon="-72.733560000">
<ele>0</ele>
<time>2026-09-04T07:17:17Z</time>
</trkpt>
<trkpt lat="46.302740000" lon="-72.734340000">
<ele>0</ele>
<time>2026-09-04T07:17:18Z</time>
</trkpt>
<trkpt lat="46.302730000" lon="-72.735640000">
<ele>0</ele>
<time>2026-09-04T07:17:19Z</time>
</trkpt>
<trkpt lat="46.302750000" lon="-72.736120000">
<ele>0</ele>
<time>2026-09-04T07:17:20Z</time>
</trkpt>
<trkpt lat="46.302850000" lon="-72.737250000">
<ele>0</ele>
<time>2026-09-04T07:17:21Z</time>
</trkpt>
<trkpt lat="46.302950000" lon="-72.738480000">
<ele>0</ele>
<time>2026-09-04T07:17:22Z</time>
</trkpt>
<trkpt lat="46.302980000" lon="-72.739000000">
<ele>0</ele>
<time>2026-09-04T07:17:23Z</time>
</trkpt>
<trkpt lat="46.303000000" lon="-72.739570000">
<ele>0</ele>
<time>2026-09-04T07:17:24Z</time>
</trkpt>
<trkpt lat="46.302950000" lon="-72.739940000">
<ele>0</ele>
<time>2026-09-04T07:17:25Z</time>
</trkpt>
<trkpt lat="46.302840000" lon="-72.740260000">
<ele>0</ele>
<time>2026-09-04T07:17:26Z</time>
</trkpt>
<trkpt lat="46.302450000" lon="-72.741010000">
<ele>0</ele>
<time>2026-09-04T07:17:27Z</time>
</trkpt>
<trkpt lat="46.301870000" lon="-72.741820000">
<ele>0</ele>
<time>2026-09-04T07:17:28Z</time>
</trkpt>
<trkpt lat="46.301480000" lon="-72.742360000">
<ele>0</ele>
<time>2026-09-04T07:17:29Z</time>
</trkpt>
<trkpt lat="46.301000000" lon="-72.743140000">
<ele>0</ele>
<time>2026-09-04T07:17:30Z</time>
</trkpt>
<trkpt lat="46.300520000" lon="-72.743860000">
<ele>0</ele>
<time>2026-09-04T07:17:31Z</time>
</trkpt>
<trkpt lat="46.300410000" lon="-72.744060000">
<ele>0</ele>
<time>2026-09-04T07:17:32Z</time>
</trkpt>
<trkpt lat="46.300330000" lon="-72.744360000">
<ele>0</ele>
<time>2026-09-04T07:17:33Z</time>
</trkpt>
<trkpt lat="46.300330000" lon="-72.744600000">
<ele>0</ele>
<time>2026-09-04T07:17:34Z</time>
</trkpt>
<trkpt lat="46.300380000" lon="-72.745110000">
<ele>0</ele>
<time>2026-09-04T07:17:35Z</time>
</trkpt>
<trkpt lat="46.300500000" lon="-72.746400000">
<ele>0</ele>
<time>2026-09-04T07:17:36Z</time>
</trkpt>
<trkpt lat="46.300300000" lon="-72.747000000">
<ele>0</ele>
<time>2026-09-04T07:17:37Z</time>
</trkpt>
<trkpt lat="46.299970000" lon="-72.747840000">
<ele>0</ele>
<time>2026-09-04T07:17:38Z</time>
</trkpt>
<trkpt lat="46.299690000" lon="-72.748480000">
<ele>0</ele>
<time>2026-09-04T07:17:39Z</time>
</trkpt>
<trkpt lat="46.299530000" lon="-72.749180000">
<ele>0</ele>
<time>2026-09-04T07:17:40Z</time>
</trkpt>
<trkpt lat="46.299090000" lon="-72.750260000">
<ele>0</ele>
<time>2026-09-04T07:17:41Z</time>
</trkpt>
<trkpt lat="46.298860000" lon="-72.750690000">
<ele>0</ele>
<time>2026-09-04T07:17:42Z</time>
</trkpt>
<trkpt lat="46.298170000" lon="-72.751750000">
<ele>0</ele>
<time>2026-09-04T07:17:43Z</time>
</trkpt>
<trkpt lat="46.297470000" lon="-72.752710000">
<ele>0</ele>
<time>2026-09-04T07:17:44Z</time>
</trkpt>
<trkpt lat="46.297140000" lon="-72.753150000">
<ele>0</ele>
<time>2026-09-04T07:17:45Z</time>
</trkpt>
<trkpt lat="46.296940000" lon="-72.753200000">
<ele>0</ele>
<time>2026-09-04T07:17:46Z</time>
</trkpt>
<trkpt lat="46.296740000" lon="-72.753680000">
<ele>0</ele>
<time>2026-09-04T07:17:47Z</time>
</trkpt>
<trkpt lat="46.296490000" lon="-72.754000000">
<ele>0</ele>
<time>2026-09-04T07:17:48Z</time>
</trkpt>
<trkpt lat="46.296390000" lon="-72.754130000">
<ele>0</ele>
<time>2026-09-04T07:17:49Z</time>
</trkpt>
<trkpt lat="46.296350000" lon="-72.754160000">
<ele>0</ele>
<time>2026-09-04T07:17:50Z</time>
</trkpt>
<trkpt lat="46.296280000" lon="-72.754520000">
<ele>0</ele>
<time>2026-09-04T07:17:51Z</time>
</trkpt>
<trkpt lat="46.296280000" lon="-72.754520000">
<ele>0</ele>
<time>2026-09-04T07:17:52Z</time>
</trkpt>
<trkpt lat="46.294750000" lon="-72.762440000">
<ele>0</ele>
<time>2026-09-04T07:17:53Z</time>
</trkpt>
<trkpt lat="46.294320000" lon="-72.764700000">
<ele>0</ele>
<time>2026-09-04T07:17:54Z</time>
</trkpt>
<trkpt lat="46.294190000" lon="-72.765320000">
<ele>0</ele>
<time>2026-09-04T07:17:55Z</time>
</trkpt>
<trkpt lat="46.293900000" lon="-72.766480000">
<ele>0</ele>
<time>2026-09-04T07:17:56Z</time>
</trkpt>
<trkpt lat="46.293700000" lon="-72.767190000">
<ele>0</ele>
<time>2026-09-04T07:17:57Z</time>
</trkpt>
<trkpt lat="46.293290000" lon="-72.768490000">
<ele>0</ele>
<time>2026-09-04T07:17:58Z</time>
</trkpt>
<trkpt lat="46.291770000" lon="-72.773360000">
<ele>0</ele>
<time>2026-09-04T07:17:59Z</time>
</trkpt>
<trkpt lat="46.291530000" lon="-72.774280000">
<ele>0</ele>
<time>2026-09-04T07:18:00Z</time>
</trkpt>
<trkpt lat="46.291400000" lon="-72.774930000">
<ele>0</ele>
<time>2026-09-04T07:18:01Z</time>
</trkpt>
<trkpt lat="46.291320000" lon="-72.775490000">
<ele>0</ele>
<time>2026-09-04T07:18:02Z</time>
</trkpt>
<trkpt lat="46.291260000" lon="-72.776120000">
<ele>0</ele>
<time>2026-09-04T07:18:03Z</time>
</trkpt>
<trkpt lat="46.291230000" lon="-72.776900000">
<ele>0</ele>
<time>2026-09-04T07:18:04Z</time>
</trkpt>
<trkpt lat="46.291240000" lon="-72.777720000">
<ele>0</ele>
<time>2026-09-04T07:18:05Z</time>
</trkpt>
<trkpt lat="46.291340000" lon="-72.780870000">
<ele>0</ele>
<time>2026-09-04T07:18:06Z</time>
</trkpt>
<trkpt lat="46.291550000" lon="-72.787590000">
<ele>0</ele>
<time>2026-09-04T07:18:07Z</time>
</trkpt>
<trkpt lat="46.291620000" lon="-72.789350000">
<ele>0</ele>
<time>2026-09-04T07:18:08Z</time>
</trkpt>
<trkpt lat="46.291640000" lon="-72.790700000">
<ele>0</ele>
<time>2026-09-04T07:18:09Z</time>
</trkpt>
<trkpt lat="46.291610000" lon="-72.792060000">
<ele>0</ele>
<time>2026-09-04T07:18:10Z</time>
</trkpt>
<trkpt lat="46.291540000" lon="-72.793020000">
<ele>0</ele>
<time>2026-09-04T07:18:11Z</time>
</trkpt>
<trkpt lat="46.291370000" lon="-72.794360000">
<ele>0</ele>
<time>2026-09-04T07:18:12Z</time>
</trkpt>
<trkpt lat="46.290640000" lon="-72.799900000">
<ele>0</ele>
<time>2026-09-04T07:18:13Z</time>
</trkpt>
<trkpt lat="46.290370000" lon="-72.799920000">
<ele>0</ele>
<time>2026-09-04T07:18:14Z</time>
</trkpt>
<trkpt lat="46.290370000" lon="-72.799920000">
<ele>0</ele>
<time>2026-09-04T07:18:15Z</time>
</trkpt>
<trkpt lat="46.289560000" lon="-72.799970000">
<ele>0</ele>
<time>2026-09-04T07:18:16Z</time>
</trkpt>
<trkpt lat="46.287990000" lon="-72.800140000">
<ele>0</ele>
<time>2026-09-04T07:18:17Z</time>
</trkpt>
<trkpt lat="46.286450000" lon="-72.800320000">
<ele>0</ele>
<time>2026-09-04T07:18:18Z</time>
</trkpt>
<trkpt lat="46.286220000" lon="-72.800360000">
<ele>0</ele>
<time>2026-09-04T07:18:19Z</time>
</trkpt>
<trkpt lat="46.285920000" lon="-72.800510000">
<ele>0</ele>
<time>2026-09-04T07:18:20Z</time>
</trkpt>
<trkpt lat="46.285490000" lon="-72.800790000">
<ele>0</ele>
<time>2026-09-04T07:18:21Z</time>
</trkpt>
<trkpt lat="46.285100000" lon="-72.801050000">
<ele>0</ele>
<time>2026-09-04T07:18:22Z</time>
</trkpt>
<trkpt lat="46.285000000" lon="-72.801100000">
<ele>0</ele>
<time>2026-09-04T07:18:23Z</time>
</trkpt>
<trkpt lat="46.284800000" lon="-72.801130000">
<ele>0</ele>
<time>2026-09-04T07:18:24Z</time>
</trkpt>
<trkpt lat="46.284280000" lon="-72.801060000">
<ele>0</ele>
<time>2026-09-04T07:18:25Z</time>
</trkpt>
<trkpt lat="46.281950000" lon="-72.800740000">
<ele>0</ele>
<time>2026-09-04T07:18:26Z</time>
</trkpt>
<trkpt lat="46.280980000" lon="-72.800570000">
<ele>0</ele>
<time>2026-09-04T07:18:27Z</time>
</trkpt>
<trkpt lat="46.280820000" lon="-72.800460000">
<ele>0</ele>
<time>2026-09-04T07:18:28Z</time>
</trkpt>
<trkpt lat="46.280490000" lon="-72.800120000">
<ele>0</ele>
<time>2026-09-04T07:18:29Z</time>
</trkpt>
<trkpt lat="46.280240000" lon="-72.799930000">
<ele>0</ele>
<time>2026-09-04T07:18:30Z</time>
</trkpt>
<trkpt lat="46.280110000" lon="-72.799870000">
<ele>0</ele>
<time>2026-09-04T07:18:31Z</time>
</trkpt>
<trkpt lat="46.278880000" lon="-72.799510000">
<ele>0</ele>
<time>2026-09-04T07:18:32Z</time>
</trkpt>
<trkpt lat="46.278000000" lon="-72.799270000">
<ele>0</ele>
<time>2026-09-04T07:18:33Z</time>
</trkpt>
<trkpt lat="46.277810000" lon="-72.799250000">
<ele>0</ele>
<time>2026-09-04T07:18:34Z</time>
</trkpt>
<trkpt lat="46.277460000" lon="-72.799280000">
<ele>0</ele>
<time>2026-09-04T07:18:35Z</time>
</trkpt>
<trkpt lat="46.274980000" lon="-72.799930000">
<ele>0</ele>
<time>2026-09-04T07:18:36Z</time>
</trkpt>
<trkpt lat="46.274340000" lon="-72.800040000">
<ele>0</ele>
<time>2026-09-04T07:18:37Z</time>
</trkpt>
<trkpt lat="46.274210000" lon="-72.800100000">
<ele>0</ele>
<time>2026-09-04T07:18:38Z</time>
</trkpt>
<trkpt lat="46.274070000" lon="-72.800190000">
<ele>0</ele>
<time>2026-09-04T07:18:39Z</time>
</trkpt>
<trkpt lat="46.273930000" lon="-72.800330000">
<ele>0</ele>
<time>2026-09-04T07:18:40Z</time>
</trkpt>
<trkpt lat="46.273800000" lon="-72.800550000">
<ele>0</ele>
<time>2026-09-04T07:18:41Z</time>
</trkpt>
<trkpt lat="46.273560000" lon="-72.801070000">
<ele>0</ele>
<time>2026-09-04T07:18:42Z</time>
</trkpt>
<trkpt lat="46.273090000" lon="-72.801950000">
<ele>0</ele>
<time>2026-09-04T07:18:43Z</time>
</trkpt>
<trkpt lat="46.272530000" lon="-72.802970000">
<ele>0</ele>
<time>2026-09-04T07:18:44Z</time>
</trkpt>
<trkpt lat="46.272640000" lon="-72.803130000">
<ele>0</ele>
<time>2026-09-04T07:18:45Z</time>
</trkpt>
<trkpt lat="46.272690000" lon="-72.803210000">
<ele>0</ele>
<time>2026-09-04T07:18:46Z</time>
</trkpt>
<trkpt lat="46.272690000" lon="-72.803210000">
<ele>0</ele>
<time>2026-09-04T07:18:47Z</time>
</trkpt>
<trkpt lat="46.272880000" lon="-72.803630000">
<ele>0</ele>
<time>2026-09-04T07:18:48Z</time>
</trkpt>
<trkpt lat="46.273110000" lon="-72.804400000">
<ele>0</ele>
<time>2026-09-04T07:18:49Z</time>
</trkpt>
<trkpt lat="46.273350000" lon="-72.805460000">
<ele>0</ele>
<time>2026-09-04T07:18:50Z</time>
</trkpt>
<trkpt lat="46.273390000" lon="-72.805630000">
<ele>0</ele>
<time>2026-09-04T07:18:51Z</time>
</trkpt>
<trkpt lat="46.273240000" lon="-72.805780000">
<ele>0</ele>
<time>2026-09-04T07:18:52Z</time>
</trkpt>
<trkpt lat="46.273230000" lon="-72.805790000">
<ele>0</ele>
<time>2026-09-04T07:18:53Z</time>
</trkpt>
<trkpt lat="46.273230000" lon="-72.805790000">
<ele>0</ele>
<time>2026-09-04T07:18:54Z</time>
</trkpt>
<trkpt lat="46.272480000" lon="-72.806500000">
<ele>0</ele>
<time>2026-09-04T07:18:55Z</time>
</trkpt>
<trkpt lat="46.272200000" lon="-72.806830000">
<ele>0</ele>
<time>2026-09-04T07:18:56Z</time>
</trkpt>
<trkpt lat="46.272030000" lon="-72.807120000">
<ele>0</ele>
<time>2026-09-04T07:18:57Z</time>
</trkpt>
<trkpt lat="46.271920000" lon="-72.807380000">
<ele>0</ele>
<time>2026-09-04T07:18:58Z</time>
</trkpt>
<trkpt lat="46.271750000" lon="-72.807930000">
<ele>0</ele>
<time>2026-09-04T07:18:59Z</time>
</trkpt>
<trkpt lat="46.271740000" lon="-72.808160000">
<ele>0</ele>
<time>2026-09-04T07:19:00Z</time>
</trkpt>
<trkpt lat="46.271840000" lon="-72.808240000">
<ele>0</ele>
<time>2026-09-04T07:19:01Z</time>
</trkpt>
<trkpt lat="46.271890000" lon="-72.808280000">
<ele>0</ele>
<time>2026-09-04T07:19:02Z</time>
</trkpt>
<trkpt lat="46.271890000" lon="-72.808280000">
<ele>0</ele>
<time>2026-09-04T07:19:03Z</time>
</trkpt>
<trkpt lat="46.272050000" lon="-72.808420000">
<ele>0</ele>
<time>2026-09-04T07:19:04Z</time>
</trkpt>
<trkpt lat="46.272410000" lon="-72.808900000">
<ele>0</ele>
<time>2026-09-04T07:19:05Z</time>
</trkpt>
<trkpt lat="46.272620000" lon="-72.809210000">
<ele>0</ele>
<time>2026-09-04T07:19:06Z</time>
</trkpt>
<trkpt lat="46.272650000" lon="-72.809290000">
<ele>0</ele>
<time>2026-09-04T07:19:07Z</time>
</trkpt>
<trkpt lat="46.274700000" lon="-72.812470000">
<ele>0</ele>
<time>2026-09-04T07:19:08Z</time>
</trkpt>
<trkpt lat="46.276260000" lon="-72.814810000">
<ele>0</ele>
<time>2026-09-04T07:19:09Z</time>
</trkpt>
<trkpt lat="46.278280000" lon="-72.817840000">
<ele>0</ele>
<time>2026-09-04T07:19:10Z</time>
</trkpt>
<trkpt lat="46.278870000" lon="-72.818710000">
<ele>0</ele>
<time>2026-09-04T07:19:11Z</time>
</trkpt>
<trkpt lat="46.279390000" lon="-72.819610000">
<ele>0</ele>
<time>2026-09-04T07:19:12Z</time>
</trkpt>
<trkpt lat="46.280920000" lon="-72.822500000">
<ele>0</ele>
<time>2026-09-04T07:19:13Z</time>
</trkpt>
<trkpt lat="46.281980000" lon="-72.824520000">
<ele>0</ele>
<time>2026-09-04T07:19:14Z</time>
</trkpt>
<trkpt lat="46.282770000" lon="-72.825950000">
<ele>0</ele>
<time>2026-09-04T07:19:15Z</time>
</trkpt>
<trkpt lat="46.283160000" lon="-72.826590000">
<ele>0</ele>
<time>2026-09-04T07:19:16Z</time>
</trkpt>
<trkpt lat="46.283470000" lon="-72.827020000">
<ele>0</ele>
<time>2026-09-04T07:19:17Z</time>
</trkpt>
<trkpt lat="46.283780000" lon="-72.827400000">
<ele>0</ele>
<time>2026-09-04T07:19:18Z</time>
</trkpt>
<trkpt lat="46.284040000" lon="-72.827710000">
<ele>0</ele>
<time>2026-09-04T07:19:19Z</time>
</trkpt>
<trkpt lat="46.284190000" lon="-72.827460000">
<ele>0</ele>
<time>2026-09-04T07:19:20Z</time>
</trkpt>
<trkpt lat="46.284190000" lon="-72.827460000">
<ele>0</ele>
<time>2026-09-04T07:19:21Z</time>
</trkpt>
<trkpt lat="46.284820000" lon="-72.826360000">
<ele>0</ele>
<time>2026-09-04T07:19:22Z</time>
</trkpt>
<trkpt lat="46.285960000" lon="-72.824350000">
<ele>0</ele>
<time>2026-09-04T07:19:23Z</time>
</trkpt>
<trkpt lat="46.287010000" lon="-72.822460000">
<ele>0</ele>
<time>2026-09-04T07:19:24Z</time>
</trkpt>
<trkpt lat="46.287270000" lon="-72.821920000">
<ele>0</ele>
<time>2026-09-04T07:19:25Z</time>
</trkpt>
<trkpt lat="46.287610000" lon="-72.821080000">
<ele>0</ele>
<time>2026-09-04T07:19:26Z</time>
</trkpt>
<trkpt lat="46.287770000" lon="-72.820560000">
<ele>0</ele>
<time>2026-09-04T07:19:27Z</time>
</trkpt>
<trkpt lat="46.287990000" lon="-72.819760000">
<ele>0</ele>
<time>2026-09-04T07:19:28Z</time>
</trkpt>
<trkpt lat="46.288110000" lon="-72.818920000">
<ele>0</ele>
<time>2026-09-04T07:19:29Z</time>
</trkpt>
<trkpt lat="46.288260000" lon="-72.817810000">
<ele>0</ele>
<time>2026-09-04T07:19:30Z</time>
</trkpt>
<trkpt lat="46.288320000" lon="-72.817770000">
<ele>0</ele>
<time>2026-09-04T07:19:31Z</time>
</trkpt>
<trkpt lat="46.288320000" lon="-72.817770000">
<ele>0</ele>
<time>2026-09-04T07:19:32Z</time>
</trkpt>
<trkpt lat="46.288450000" lon="-72.817680000">
<ele>0</ele>
<time>2026-09-04T07:19:33Z</time>
</trkpt>
<trkpt lat="46.289020000" lon="-72.817310000">
<ele>0</ele>
<time>2026-09-04T07:19:34Z</time>
</trkpt>
<trkpt lat="46.289130000" lon="-72.817260000">
<ele>0</ele>
<time>2026-09-04T07:19:35Z</time>
</trkpt>
<trkpt lat="46.290060000" lon="-72.816920000">
<ele>0</ele>
<time>2026-09-04T07:19:36Z</time>
</trkpt>
<trkpt lat="46.290740000" lon="-72.816620000">
<ele>0</ele>
<time>2026-09-04T07:19:37Z</time>
</trkpt>
<trkpt lat="46.291280000" lon="-72.816350000">
<ele>0</ele>
<time>2026-09-04T07:19:38Z</time>
</trkpt>
<trkpt lat="46.291670000" lon="-72.816170000">
<ele>0</ele>
<time>2026-09-04T07:19:39Z</time>
</trkpt>
<trkpt lat="46.291800000" lon="-72.816130000">
<ele>0</ele>
<time>2026-09-04T07:19:40Z</time>
</trkpt>
<trkpt lat="46.291900000" lon="-72.815970000">
<ele>0</ele>
<time>2026-09-04T07:19:41Z</time>
</trkpt>
<trkpt lat="46.292130000" lon="-72.815670000">
<ele>0</ele>
<time>2026-09-04T07:19:42Z</time>
</trkpt>
<trkpt lat="46.292240000" lon="-72.815440000">
<ele>0</ele>
<time>2026-09-04T07:19:43Z</time>
</trkpt>
<trkpt lat="46.292240000" lon="-72.815440000">
<ele>0</ele>
<time>2026-09-04T07:19:44Z</time>
</trkpt>
<trkpt lat="46.292440000" lon="-72.815010000">
<ele>0</ele>
<time>2026-09-04T07:19:45Z</time>
</trkpt>
<trkpt lat="46.292600000" lon="-72.814360000">
<ele>0</ele>
<time>2026-09-04T07:19:46Z</time>
</trkpt>
<trkpt lat="46.292840000" lon="-72.812930000">
<ele>0</ele>
<time>2026-09-04T07:19:47Z</time>
</trkpt>
<trkpt lat="46.293090000" lon="-72.810980000">
<ele>0</ele>
<time>2026-09-04T07:19:48Z</time>
</trkpt>
<trkpt lat="46.293600000" lon="-72.808330000">
<ele>0</ele>
<time>2026-09-04T07:19:49Z</time>
</trkpt>
<trkpt lat="46.293810000" lon="-72.807040000">
<ele>0</ele>
<time>2026-09-04T07:19:50Z</time>
</trkpt>
<trkpt lat="46.293960000" lon="-72.805990000">
<ele>0</ele>
<time>2026-09-04T07:19:51Z</time>
</trkpt>
<trkpt lat="46.294130000" lon="-72.804760000">
<ele>0</ele>
<time>2026-09-04T07:19:52Z</time>
</trkpt>
<trkpt lat="46.294340000" lon="-72.802570000">
<ele>0</ele>
<time>2026-09-04T07:19:53Z</time>
</trkpt>
<trkpt lat="46.294270000" lon="-72.802100000">
<ele>0</ele>
<time>2026-09-04T07:19:54Z</time>
</trkpt>
<trkpt lat="46.294220000" lon="-72.801430000">
<ele>0</ele>
<time>2026-09-04T07:19:55Z</time>
</trkpt>
<trkpt lat="46.294180000" lon="-72.801010000">
<ele>0</ele>
<time>2026-09-04T07:19:56Z</time>
</trkpt>
<trkpt lat="46.294140000" lon="-72.800610000">
<ele>0</ele>
<time>2026-09-04T07:19:57Z</time>
</trkpt>
<trkpt lat="46.294140000" lon="-72.799770000">
<ele>0</ele>
<time>2026-09-04T07:19:58Z</time>
</trkpt>
<trkpt lat="46.294310000" lon="-72.799830000">
<ele>0</ele>
<time>2026-09-04T07:19:59Z</time>
</trkpt>
<trkpt lat="46.294310000" lon="-72.799830000">
<ele>0</ele>
<time>2026-09-04T07:20:00Z</time>
</trkpt>
<trkpt lat="46.294620000" lon="-72.799910000">
<ele>0</ele>
<time>2026-09-04T07:20:01Z</time>
</trkpt>
<trkpt lat="46.295900000" lon="-72.800070000">
<ele>0</ele>
<time>2026-09-04T07:20:02Z</time>
</trkpt>
<trkpt lat="46.296970000" lon="-72.800200000">
<ele>0</ele>
<time>2026-09-04T07:20:03Z</time>
</trkpt>
<trkpt lat="46.297670000" lon="-72.800460000">
<ele>0</ele>
<time>2026-09-04T07:20:04Z</time>
</trkpt>
<trkpt lat="46.297920000" lon="-72.800540000">
<ele>0</ele>
<time>2026-09-04T07:20:05Z</time>
</trkpt>
<trkpt lat="46.298030000" lon="-72.800550000">
<ele>0</ele>
<time>2026-09-04T07:20:06Z</time>
</trkpt>
<trkpt lat="46.298410000" lon="-72.800550000">
<ele>0</ele>
<time>2026-09-04T07:20:07Z</time>
</trkpt>
<trkpt lat="46.299640000" lon="-72.800370000">
<ele>0</ele>
<time>2026-09-04T07:20:08Z</time>
</trkpt>
<trkpt lat="46.301610000" lon="-72.800070000">
<ele>0</ele>
<time>2026-09-04T07:20:09Z</time>
</trkpt>
<trkpt lat="46.302680000" lon="-72.799900000">
<ele>0</ele>
<time>2026-09-04T07:20:10Z</time>
</trkpt>
<trkpt lat="46.303040000" lon="-72.799880000">
<ele>0</ele>
<time>2026-09-04T07:20:11Z</time>
</trkpt>
<trkpt lat="46.303900000" lon="-72.799910000">
<ele>0</ele>
<time>2026-09-04T07:20:12Z</time>
</trkpt>
<trkpt lat="46.304940000" lon="-72.800010000">
<ele>0</ele>
<time>2026-09-04T07:20:13Z</time>
</trkpt>
<trkpt lat="46.305550000" lon="-72.800110000">
<ele>0</ele>
<time>2026-09-04T07:20:14Z</time>
</trkpt>
<trkpt lat="46.306520000" lon="-72.800320000">
<ele>0</ele>
<time>2026-09-04T07:20:15Z</time>
</trkpt>
<trkpt lat="46.306760000" lon="-72.800350000">
<ele>0</ele>
<time>2026-09-04T07:20:16Z</time>
</trkpt>
<trkpt lat="46.306970000" lon="-72.800350000">
<ele>0</ele>
<time>2026-09-04T07:20:17Z</time>
</trkpt>
<trkpt lat="46.307340000" lon="-72.800300000">
<ele>0</ele>
<time>2026-09-04T07:20:18Z</time>
</trkpt>
<trkpt lat="46.308300000" lon="-72.800130000">
<ele>0</ele>
<time>2026-09-04T07:20:19Z</time>
</trkpt>
<trkpt lat="46.308720000" lon="-72.800110000">
<ele>0</ele>
<time>2026-09-04T07:20:20Z</time>
</trkpt>
<trkpt lat="46.309660000" lon="-72.800180000">
<ele>0</ele>
<time>2026-09-04T07:20:21Z</time>
</trkpt>
<trkpt lat="46.310080000" lon="-72.800220000">
<ele>0</ele>
<time>2026-09-04T07:20:22Z</time>
</trkpt>
<trkpt lat="46.311020000" lon="-72.800220000">
<ele>0</ele>
<time>2026-09-04T07:20:23Z</time>
</trkpt>
<trkpt lat="46.311780000" lon="-72.800140000">
<ele>0</ele>
<time>2026-09-04T07:20:24Z</time>
</trkpt>
<trkpt lat="46.312000000" lon="-72.800120000">
<ele>0</ele>
<time>2026-09-04T07:20:25Z</time>
</trkpt>
<trkpt lat="46.312390000" lon="-72.800050000">
<ele>0</ele>
<time>2026-09-04T07:20:26Z</time>
</trkpt>
<trkpt lat="46.312660000" lon="-72.799950000">
<ele>0</ele>
<time>2026-09-04T07:20:27Z</time>
</trkpt>
<trkpt lat="46.312830000" lon="-72.799870000">
<ele>0</ele>
<time>2026-09-04T07:20:28Z</time>
</trkpt>
<trkpt lat="46.313370000" lon="-72.799610000">
<ele>0</ele>
<time>2026-09-04T07:20:29Z</time>
</trkpt>
<trkpt lat="46.313610000" lon="-72.799520000">
<ele>0</ele>
<time>2026-09-04T07:20:30Z</time>
</trkpt>
<trkpt lat="46.313880000" lon="-72.799460000">
<ele>0</ele>
<time>2026-09-04T07:20:31Z</time>
</trkpt>
<trkpt lat="46.314570000" lon="-72.799390000">
<ele>0</ele>
<time>2026-09-04T07:20:32Z</time>
</trkpt>
<trkpt lat="46.314820000" lon="-72.799370000">
<ele>0</ele>
<time>2026-09-04T07:20:33Z</time>
</trkpt>
<trkpt lat="46.315140000" lon="-72.799310000">
<ele>0</ele>
<time>2026-09-04T07:20:34Z</time>
</trkpt>
<trkpt lat="46.315360000" lon="-72.799230000">
<ele>0</ele>
<time>2026-09-04T07:20:35Z</time>
</trkpt>
<trkpt lat="46.315810000" lon="-72.798980000">
<ele>0</ele>
<time>2026-09-04T07:20:36Z</time>
</trkpt>
<trkpt lat="46.316640000" lon="-72.798340000">
<ele>0</ele>
<time>2026-09-04T07:20:37Z</time>
</trkpt>
<trkpt lat="46.317230000" lon="-72.797860000">
<ele>0</ele>
<time>2026-09-04T07:20:38Z</time>
</trkpt>
<trkpt lat="46.317860000" lon="-72.797360000">
<ele>0</ele>
<time>2026-09-04T07:20:39Z</time>
</trkpt>
<trkpt lat="46.318200000" lon="-72.797090000">
<ele>0</ele>
<time>2026-09-04T07:20:40Z</time>
</trkpt>
<trkpt lat="46.318930000" lon="-72.796410000">
<ele>0</ele>
<time>2026-09-04T07:20:41Z</time>
</trkpt>
<trkpt lat="46.319860000" lon="-72.795600000">
<ele>0</ele>
<time>2026-09-04T07:20:42Z</time>
</trkpt>
<trkpt lat="46.320250000" lon="-72.795310000">
<ele>0</ele>
<time>2026-09-04T07:20:43Z</time>
</trkpt>
<trkpt lat="46.321460000" lon="-72.794590000">
<ele>0</ele>
<time>2026-09-04T07:20:44Z</time>
</trkpt>
<trkpt lat="46.322470000" lon="-72.794000000">
<ele>0</ele>
<time>2026-09-04T07:20:45Z</time>
</trkpt>
<trkpt lat="46.322670000" lon="-72.793910000">
<ele>0</ele>
<time>2026-09-04T07:20:46Z</time>
</trkpt>
<trkpt lat="46.323380000" lon="-72.793690000">
<ele>0</ele>
<time>2026-09-04T07:20:47Z</time>
</trkpt>
<trkpt lat="46.324450000" lon="-72.793420000">
<ele>0</ele>
<time>2026-09-04T07:20:48Z</time>
</trkpt>
<trkpt lat="46.325610000" lon="-72.793170000">
<ele>0</ele>
<time>2026-09-04T07:20:49Z</time>
</trkpt>
<trkpt lat="46.325890000" lon="-72.793150000">
<ele>0</ele>
<time>2026-09-04T07:20:50Z</time>
</trkpt>
<trkpt lat="46.326330000" lon="-72.793160000">
<ele>0</ele>
<time>2026-09-04T07:20:51Z</time>
</trkpt>
<trkpt lat="46.326590000" lon="-72.793220000">
<ele>0</ele>
<time>2026-09-04T07:20:52Z</time>
</trkpt>
<trkpt lat="46.326810000" lon="-72.793290000">
<ele>0</ele>
<time>2026-09-04T07:20:53Z</time>
</trkpt>
<trkpt lat="46.327280000" lon="-72.793500000">
<ele>0</ele>
<time>2026-09-04T07:20:54Z</time>
</trkpt>
<trkpt lat="46.329040000" lon="-72.794310000">
<ele>0</ele>
<time>2026-09-04T07:20:55Z</time>
</trkpt>
<trkpt lat="46.329560000" lon="-72.794530000">
<ele>0</ele>
<time>2026-09-04T07:20:56Z</time>
</trkpt>
<trkpt lat="46.330090000" lon="-72.794640000">
<ele>0</ele>
<time>2026-09-04T07:20:57Z</time>
</trkpt>
<trkpt lat="46.330610000" lon="-72.794660000">
<ele>0</ele>
<time>2026-09-04T07:20:58Z</time>
</trkpt>
<trkpt lat="46.331210000" lon="-72.794610000">
<ele>0</ele>
<time>2026-09-04T07:20:59Z</time>
</trkpt>
<trkpt lat="46.331560000" lon="-72.794500000">
<ele>0</ele>
<time>2026-09-04T07:21:00Z</time>
</trkpt>
<trkpt lat="46.332370000" lon="-72.794070000">
<ele>0</ele>
<time>2026-09-04T07:21:01Z</time>
</trkpt>
<trkpt lat="46.332780000" lon="-72.793900000">
<ele>0</ele>
<time>2026-09-04T07:21:02Z</time>
</trkpt>
<trkpt lat="46.332940000" lon="-72.793860000">
<ele>0</ele>
<time>2026-09-04T07:21:03Z</time>
</trkpt>
<trkpt lat="46.333430000" lon="-72.793840000">
<ele>0</ele>
<time>2026-09-04T07:21:04Z</time>
</trkpt>
<trkpt lat="46.333610000" lon="-72.793850000">
<ele>0</ele>
<time>2026-09-04T07:21:05Z</time>
</trkpt>
<trkpt lat="46.334010000" lon="-72.793940000">
<ele>0</ele>
<time>2026-09-04T07:21:06Z</time>
</trkpt>
<trkpt lat="46.336900000" lon="-72.795180000">
<ele>0</ele>
<time>2026-09-04T07:21:07Z</time>
</trkpt>
<trkpt lat="46.338800000" lon="-72.795980000">
<ele>0</ele>
<time>2026-09-04T07:21:08Z</time>
</trkpt>
<trkpt lat="46.339410000" lon="-72.796220000">
<ele>0</ele>
<time>2026-09-04T07:21:09Z</time>
</trkpt>
<trkpt lat="46.339870000" lon="-72.796360000">
<ele>0</ele>
<time>2026-09-04T07:21:10Z</time>
</trkpt>
<trkpt lat="46.340380000" lon="-72.796410000">
<ele>0</ele>
<time>2026-09-04T07:21:11Z</time>
</trkpt>
<trkpt lat="46.341110000" lon="-72.796360000">
<ele>0</ele>
<time>2026-09-04T07:21:12Z</time>
</trkpt>
<trkpt lat="46.341800000" lon="-72.796120000">
<ele>0</ele>
<time>2026-09-04T07:21:13Z</time>
</trkpt>
<trkpt lat="46.342080000" lon="-72.796000000">
<ele>0</ele>
<time>2026-09-04T07:21:14Z</time>
</trkpt>
<trkpt lat="46.342390000" lon="-72.795800000">
<ele>0</ele>
<time>2026-09-04T07:21:15Z</time>
</trkpt>
<trkpt lat="46.343800000" lon="-72.794720000">
<ele>0</ele>
<time>2026-09-04T07:21:16Z</time>
</trkpt>
<trkpt lat="46.344260000" lon="-72.794320000">
<ele>0</ele>
<time>2026-09-04T07:21:17Z</time>
</trkpt>
<trkpt lat="46.344450000" lon="-72.794120000">
<ele>0</ele>
<time>2026-09-04T07:21:18Z</time>
</trkpt>
<trkpt lat="46.344630000" lon="-72.793890000">
<ele>0</ele>
<time>2026-09-04T07:21:19Z</time>
</trkpt>
<trkpt lat="46.344750000" lon="-72.793700000">
<ele>0</ele>
<time>2026-09-04T07:21:20Z</time>
</trkpt>
<trkpt lat="46.344970000" lon="-72.793250000">
<ele>0</ele>
<time>2026-09-04T07:21:21Z</time>
</trkpt>
<trkpt lat="46.345140000" lon="-72.792820000">
<ele>0</ele>
<time>2026-09-04T07:21:22Z</time>
</trkpt>
<trkpt lat="46.345200000" lon="-72.792580000">
<ele>0</ele>
<time>2026-09-04T07:21:23Z</time>
</trkpt>
<trkpt lat="46.345390000" lon="-72.791700000">
<ele>0</ele>
<time>2026-09-04T07:21:24Z</time>
</trkpt>
<trkpt lat="46.345570000" lon="-72.790840000">
<ele>0</ele>
<time>2026-09-04T07:21:25Z</time>
</trkpt>
<trkpt lat="46.345990000" lon="-72.788930000">
<ele>0</ele>
<time>2026-09-04T07:21:26Z</time>
</trkpt>
<trkpt lat="46.346260000" lon="-72.787820000">
<ele>0</ele>
<time>2026-09-04T07:21:27Z</time>
</trkpt>
<trkpt lat="46.347010000" lon="-72.785100000">
<ele>0</ele>
<time>2026-09-04T07:21:28Z</time>
</trkpt>
<trkpt lat="46.347530000" lon="-72.783130000">
<ele>0</ele>
<time>2026-09-04T07:21:29Z</time>
</trkpt>
<trkpt lat="46.347680000" lon="-72.782570000">
<ele>0</ele>
<time>2026-09-04T07:21:30Z</time>
</trkpt>
<trkpt lat="46.347760000" lon="-72.782380000">
<ele>0</ele>
<time>2026-09-04T07:21:31Z</time>
</trkpt>
<trkpt lat="46.347860000" lon="-72.782220000">
<ele>0</ele>
<time>2026-09-04T07:21:32Z</time>
</trkpt>
<trkpt lat="46.348000000" lon="-72.782050000">
<ele>0</ele>
<time>2026-09-04T07:21:33Z</time>
</trkpt>
<trkpt lat="46.349920000" lon="-72.779870000">
<ele>0</ele>
<time>2026-09-04T07:21:34Z</time>
</trkpt>
<trkpt lat="46.350960000" lon="-72.778590000">
<ele>0</ele>
<time>2026-09-04T07:21:35Z</time>
</trkpt>
<trkpt lat="46.351110000" lon="-72.778370000">
<ele>0</ele>
<time>2026-09-04T07:21:36Z</time>
</trkpt>
<trkpt lat="46.351230000" lon="-72.778190000">
<ele>0</ele>
<time>2026-09-04T07:21:37Z</time>
</trkpt>
<trkpt lat="46.351900000" lon="-72.776740000">
<ele>0</ele>
<time>2026-09-04T07:21:38Z</time>
</trkpt>
<trkpt lat="46.352110000" lon="-72.776370000">
<ele>0</ele>
<time>2026-09-04T07:21:39Z</time>
</trkpt>
<trkpt lat="46.353350000" lon="-72.774540000">
<ele>0</ele>
<time>2026-09-04T07:21:40Z</time>
</trkpt>
<trkpt lat="46.353620000" lon="-72.774190000">
<ele>0</ele>
<time>2026-09-04T07:21:41Z</time>
</trkpt>
<trkpt lat="46.353720000" lon="-72.774110000">
<ele>0</ele>
<time>2026-09-04T07:21:42Z</time>
</trkpt>
<trkpt lat="46.353720000" lon="-72.774110000">
<ele>0</ele>
<time>2026-09-04T07:21:43Z</time>
</trkpt>
<trkpt lat="46.353780000" lon="-72.774070000">
<ele>0</ele>
<time>2026-09-04T07:21:44Z</time>
</trkpt>
<trkpt lat="46.353910000" lon="-72.774100000">
<ele>0</ele>
<time>2026-09-04T07:21:45Z</time>
</trkpt>
<trkpt lat="46.353970000" lon="-72.774130000">
<ele>0</ele>
<time>2026-09-04T07:21:46Z</time>
</trkpt>
<trkpt lat="46.355560000" lon="-72.776000000">
<ele>0</ele>
<time>2026-09-04T07:21:47Z</time>
</trkpt>
<trkpt lat="46.358170000" lon="-72.779130000">
<ele>0</ele>
<time>2026-09-04T07:21:48Z</time>
</trkpt>
<trkpt lat="46.362160000" lon="-72.783890000">
<ele>0</ele>
<time>2026-09-04T07:21:49Z</time>
</trkpt>
<trkpt lat="46.364320000" lon="-72.786360000">
<ele>0</ele>
<time>2026-09-04T07:21:50Z</time>
</trkpt>
<trkpt lat="46.365690000" lon="-72.787920000">
<ele>0</ele>
<time>2026-09-04T07:21:51Z</time>
</trkpt>
<trkpt lat="46.367010000" lon="-72.789520000">
<ele>0</ele>
<time>2026-09-04T07:21:52Z</time>
</trkpt>
<trkpt lat="46.367210000" lon="-72.789140000">
<ele>0</ele>
<time>2026-09-04T07:21:53Z</time>
</trkpt>
<trkpt lat="46.367210000" lon="-72.789140000">
<ele>0</ele>
<time>2026-09-04T07:21:54Z</time>
</trkpt>
<trkpt lat="46.367010000" lon="-72.789520000">
<ele>0</ele>
<time>2026-09-04T07:21:55Z</time>
</trkpt>
<trkpt lat="46.365690000" lon="-72.787920000">
<ele>0</ele>
<time>2026-09-04T07:21:56Z</time>
</trkpt>
<trkpt lat="46.365900000" lon="-72.787580000">
<ele>0</ele>
<time>2026-09-04T07:21:57Z</time>
</trkpt>
<trkpt lat="46.365900000" lon="-72.787580000">
<ele>0</ele>
<time>2026-09-04T07:21:58Z</time>
</trkpt>
<trkpt lat="46.368230000" lon="-72.784030000">
<ele>0</ele>
<time>2026-09-04T07:21:59Z</time>
</trkpt>
<trkpt lat="46.370230000" lon="-72.781120000">
<ele>0</ele>
<time>2026-09-04T07:22:00Z</time>
</trkpt>
<trkpt lat="46.373400000" lon="-72.776500000">
<ele>0</ele>
<time>2026-09-04T07:22:01Z</time>
</trkpt>
<trkpt lat="46.374670000" lon="-72.774660000">
<ele>0</ele>
<time>2026-09-04T07:22:02Z</time>
</trkpt>
<trkpt lat="46.375160000" lon="-72.773890000">
<ele>0</ele>
<time>2026-09-04T07:22:03Z</time>
</trkpt>
<trkpt lat="46.375440000" lon="-72.773460000">
<ele>0</ele>
<time>2026-09-04T07:22:04Z</time>
</trkpt>
<trkpt lat="46.376810000" lon="-72.771490000">
<ele>0</ele>
<time>2026-09-04T07:22:05Z</time>
</trkpt>
<trkpt lat="46.377840000" lon="-72.770000000">
<ele>0</ele>
<time>2026-09-04T07:22:06Z</time>
</trkpt>
<trkpt lat="46.378050000" lon="-72.769730000">
<ele>0</ele>
<time>2026-09-04T07:22:07Z</time>
</trkpt>
<trkpt lat="46.378240000" lon="-72.769520000">
<ele>0</ele>
<time>2026-09-04T07:22:08Z</time>
</trkpt>
<trkpt lat="46.378390000" lon="-72.769400000">
<ele>0</ele>
<time>2026-09-04T07:22:09Z</time>
</trkpt>
<trkpt lat="46.378900000" lon="-72.769020000">
<ele>0</ele>
<time>2026-09-04T07:22:10Z</time>
</trkpt>
<trkpt lat="46.379350000" lon="-72.768720000">
<ele>0</ele>
<time>2026-09-04T07:22:11Z</time>
</trkpt>
<trkpt lat="46.379650000" lon="-72.768470000">
<ele>0</ele>
<time>2026-09-04T07:22:12Z</time>
</trkpt>
<trkpt lat="46.380010000" lon="-72.768090000">
<ele>0</ele>
<time>2026-09-04T07:22:13Z</time>
</trkpt>
<trkpt lat="46.381890000" lon="-72.765390000">
<ele>0</ele>
<time>2026-09-04T07:22:14Z</time>
</trkpt>
<trkpt lat="46.384440000" lon="-72.761710000">
<ele>0</ele>
<time>2026-09-04T07:22:15Z</time>
</trkpt>
<trkpt lat="46.388520000" lon="-72.755830000">
<ele>0</ele>
<time>2026-09-04T07:22:16Z</time>
</trkpt>
<trkpt lat="46.389800000" lon="-72.753990000">
<ele>0</ele>
<time>2026-09-04T07:22:17Z</time>
</trkpt>
<trkpt lat="46.389900000" lon="-72.754140000">
<ele>0</ele>
<time>2026-09-04T07:22:18Z</time>
</trkpt>
<trkpt lat="46.389900000" lon="-72.754140000">
<ele>0</ele>
<time>2026-09-04T07:22:19Z</time>
</trkpt>
<trkpt lat="46.390590000" lon="-72.755170000">
<ele>0</ele>
<time>2026-09-04T07:22:20Z</time>
</trkpt>
<trkpt lat="46.390720000" lon="-72.754970000">
<ele>0</ele>
<time>2026-09-04T07:22:21Z</time>
</trkpt>
<trkpt lat="46.390720000" lon="-72.754970000">
<ele>0</ele>
<time>2026-09-04T07:22:22Z</time>
</trkpt>
<trkpt lat="46.392400000" lon="-72.752330000">
<ele>0</ele>
<time>2026-09-04T07:22:23Z</time>
</trkpt>
<trkpt lat="46.392940000" lon="-72.751460000">
<ele>0</ele>
<time>2026-09-04T07:22:24Z</time>
</trkpt>
<trkpt lat="46.394240000" lon="-72.749420000">
<ele>0</ele>
<time>2026-09-04T07:22:25Z</time>
</trkpt>
<trkpt lat="46.396430000" lon="-72.745960000">
<ele>0</ele>
<time>2026-09-04T07:22:26Z</time>
</trkpt>
<trkpt lat="46.396800000" lon="-72.745390000">
<ele>0</ele>
<time>2026-09-04T07:22:27Z</time>
</trkpt>
<trkpt lat="46.397440000" lon="-72.744480000">
<ele>0</ele>
<time>2026-09-04T07:22:28Z</time>
</trkpt>
<trkpt lat="46.398350000" lon="-72.743210000">
<ele>0</ele>
<time>2026-09-04T07:22:29Z</time>
</trkpt>
<trkpt lat="46.400400000" lon="-72.740310000">
<ele>0</ele>
<time>2026-09-04T07:22:30Z</time>
</trkpt>
<trkpt lat="46.401970000" lon="-72.737980000">
<ele>0</ele>
<time>2026-09-04T07:22:31Z</time>
</trkpt>
<trkpt lat="46.403980000" lon="-72.735000000">
<ele>0</ele>
<time>2026-09-04T07:22:32Z</time>
</trkpt>
<trkpt lat="46.405860000" lon="-72.732230000">
<ele>0</ele>
<time>2026-09-04T07:22:33Z</time>
</trkpt>
<trkpt lat="46.407300000" lon="-72.730130000">
<ele>0</ele>
<time>2026-09-04T07:22:34Z</time>
</trkpt>
<trkpt lat="46.407860000" lon="-72.729230000">
<ele>0</ele>
<time>2026-09-04T07:22:35Z</time>
</trkpt>
<trkpt lat="46.408980000" lon="-72.727530000">
<ele>0</ele>
<time>2026-09-04T07:22:36Z</time>
</trkpt>
<trkpt lat="46.409960000" lon="-72.726020000">
<ele>0</ele>
<time>2026-09-04T07:22:37Z</time>
</trkpt>
<trkpt lat="46.411050000" lon="-72.724350000">
<ele>0</ele>
<time>2026-09-04T07:22:38Z</time>
</trkpt>
<trkpt lat="46.410680000" lon="-72.723820000">
<ele>0</ele>
<time>2026-09-04T07:22:39Z</time>
</trkpt>
<trkpt lat="46.410680000" lon="-72.723820000">
<ele>0</ele>
<time>2026-09-04T07:22:40Z</time>
</trkpt>
<trkpt lat="46.408860000" lon="-72.721200000">
<ele>0</ele>
<time>2026-09-04T07:22:41Z</time>
</trkpt>
<trkpt lat="46.405290000" lon="-72.716050000">
<ele>0</ele>
<time>2026-09-04T07:22:42Z</time>
</trkpt>
<trkpt lat="46.401220000" lon="-72.710150000">
<ele>0</ele>
<time>2026-09-04T07:22:43Z</time>
</trkpt>
<trkpt lat="46.400370000" lon="-72.708900000">
<ele>0</ele>
<time>2026-09-04T07:22:44Z</time>
</trkpt>
<trkpt lat="46.399610000" lon="-72.707790000">
<ele>0</ele>
<time>2026-09-04T07:22:45Z</time>
</trkpt>
<trkpt lat="46.399110000" lon="-72.707050000">
<ele>0</ele>
<time>2026-09-04T07:22:46Z</time>
</trkpt>
<trkpt lat="46.398760000" lon="-72.706470000">
<ele>0</ele>
<time>2026-09-04T07:22:47Z</time>
</trkpt>
<trkpt lat="46.397450000" lon="-72.704560000">
<ele>0</ele>
<time>2026-09-04T07:22:48Z</time>
</trkpt>
<trkpt lat="46.395290000" lon="-72.701410000">
<ele>0</ele>
<time>2026-09-04T07:22:49Z</time>
</trkpt>
<trkpt lat="46.394320000" lon="-72.699980000">
<ele>0</ele>
<time>2026-09-04T07:22:50Z</time>
</trkpt>
<trkpt lat="46.393180000" lon="-72.698310000">
<ele>0</ele>
<time>2026-09-04T07:22:51Z</time>
</trkpt>
<trkpt lat="46.391540000" lon="-72.695910000">
<ele>0</ele>
<time>2026-09-04T07:22:52Z</time>
</trkpt>
<trkpt lat="46.389670000" lon="-72.693220000">
<ele>0</ele>
<time>2026-09-04T07:22:53Z</time>
</trkpt>
<trkpt lat="46.387710000" lon="-72.690370000">
<ele>0</ele>
<time>2026-09-04T07:22:54Z</time>
</trkpt>
<trkpt lat="46.385440000" lon="-72.687080000">
<ele>0</ele>
<time>2026-09-04T07:22:55Z</time>
</trkpt>
<trkpt lat="46.384020000" lon="-72.684970000">
<ele>0</ele>
<time>2026-09-04T07:22:56Z</time>
</trkpt>
<trkpt lat="46.383280000" lon="-72.683950000">
<ele>0</ele>
<time>2026-09-04T07:22:57Z</time>
</trkpt>
<trkpt lat="46.383020000" lon="-72.683590000">
<ele>0</ele>
<time>2026-09-04T07:22:58Z</time>
</trkpt>
<trkpt lat="46.381340000" lon="-72.681240000">
<ele>0</ele>
<time>2026-09-04T07:22:59Z</time>
</trkpt>
<trkpt lat="46.380960000" lon="-72.680680000">
<ele>0</ele>
<time>2026-09-04T07:23:00Z</time>
</trkpt>
<trkpt lat="46.379230000" lon="-72.678170000">
<ele>0</ele>
<time>2026-09-04T07:23:01Z</time>
</trkpt>
<trkpt lat="46.379020000" lon="-72.677910000">
<ele>0</ele>
<time>2026-09-04T07:23:02Z</time>
</trkpt>
<trkpt lat="46.378910000" lon="-72.677800000">
<ele>0</ele>
<time>2026-09-04T07:23:03Z</time>
</trkpt>
<trkpt lat="46.378720000" lon="-72.677690000">
<ele>0</ele>
<time>2026-09-04T07:23:04Z</time>
</trkpt>
<trkpt lat="46.377560000" lon="-72.677460000">
<ele>0</ele>
<time>2026-09-04T07:23:05Z</time>
</trkpt>
<trkpt lat="46.377090000" lon="-72.677350000">
<ele>0</ele>
<time>2026-09-04T07:23:06Z</time>
</trkpt>
<trkpt lat="46.376730000" lon="-72.677180000">
<ele>0</ele>
<time>2026-09-04T07:23:07Z</time>
</trkpt>
<trkpt lat="46.376390000" lon="-72.676900000">
<ele>0</ele>
<time>2026-09-04T07:23:08Z</time>
</trkpt>
<trkpt lat="46.376150000" lon="-72.676580000">
<ele>0</ele>
<time>2026-09-04T07:23:09Z</time>
</trkpt>
<trkpt lat="46.376270000" lon="-72.676460000">
<ele>0</ele>
<time>2026-09-04T07:23:10Z</time>
</trkpt>
<trkpt lat="46.376420000" lon="-72.676250000">
<ele>0</ele>
<time>2026-09-04T07:23:11Z</time>
</trkpt>
<trkpt lat="46.376580000" lon="-72.675990000">
<ele>0</ele>
<time>2026-09-04T07:23:12Z</time>
</trkpt>
<trkpt lat="46.376580000" lon="-72.675990000">
<ele>0</ele>
<time>2026-09-04T07:23:13Z</time>
</trkpt>
<trkpt lat="46.377130000" lon="-72.675120000">
<ele>0</ele>
<time>2026-09-04T07:23:14Z</time>
</trkpt>
<trkpt lat="46.377900000" lon="-72.674010000">
<ele>0</ele>
<time>2026-09-04T07:23:15Z</time>
</trkpt>
<trkpt lat="46.379200000" lon="-72.672180000">
<ele>0</ele>
<time>2026-09-04T07:23:16Z</time>
</trkpt>
<trkpt lat="46.379450000" lon="-72.671800000">
<ele>0</ele>
<time>2026-09-04T07:23:17Z</time>
</trkpt>
<trkpt lat="46.380840000" lon="-72.669830000">
<ele>0</ele>
<time>2026-09-04T07:23:18Z</time>
</trkpt>
<trkpt lat="46.383910000" lon="-72.665440000">
<ele>0</ele>
<time>2026-09-04T07:23:19Z</time>
</trkpt>
<trkpt lat="46.385980000" lon="-72.662540000">
<ele>0</ele>
<time>2026-09-04T07:23:20Z</time>
</trkpt>
<trkpt lat="46.387230000" lon="-72.660740000">
<ele>0</ele>
<time>2026-09-04T07:23:21Z</time>
</trkpt>
<trkpt lat="46.387490000" lon="-72.660280000">
<ele>0</ele>
<time>2026-09-04T07:23:22Z</time>
</trkpt>
<trkpt lat="46.387580000" lon="-72.660080000">
<ele>0</ele>
<time>2026-09-04T07:23:23Z</time>
</trkpt>
<trkpt lat="46.387450000" lon="-72.659900000">
<ele>0</ele>
<time>2026-09-04T07:23:24Z</time>
</trkpt>
<trkpt lat="46.387220000" lon="-72.659600000">
<ele>0</ele>
<time>2026-09-04T07:23:25Z</time>
</trkpt>
<trkpt lat="46.387220000" lon="-72.659600000">
<ele>0</ele>
<time>2026-09-04T07:23:26Z</time>
</trkpt>
<trkpt lat="46.386870000" lon="-72.659120000">
<ele>0</ele>
<time>2026-09-04T07:23:27Z</time>
</trkpt>
<trkpt lat="46.386690000" lon="-72.658880000">
<ele>0</ele>
<time>2026-09-04T07:23:28Z</time>
</trkpt>
<trkpt lat="46.386670000" lon="-72.658820000">
<ele>0</ele>
<time>2026-09-04T07:23:29Z</time>
</trkpt>
<trkpt lat="46.386650000" lon="-72.658740000">
<ele>0</ele>
<time>2026-09-04T07:23:30Z</time>
</trkpt>
<trkpt lat="46.386450000" lon="-72.658450000">
<ele>0</ele>
<time>2026-09-04T07:23:31Z</time>
</trkpt>
<trkpt lat="46.386070000" lon="-72.657900000">
<ele>0</ele>
<time>2026-09-04T07:23:32Z</time>
</trkpt>
<trkpt lat="46.381480000" lon="-72.651280000">
<ele>0</ele>
<time>2026-09-04T07:23:33Z</time>
</trkpt>
<trkpt lat="46.377510000" lon="-72.645770000">
<ele>0</ele>
<time>2026-09-04T07:23:34Z</time>
</trkpt>
<trkpt lat="46.376860000" lon="-72.644860000">
<ele>0</ele>
<time>2026-09-04T07:23:35Z</time>
</trkpt>
<trkpt lat="46.376720000" lon="-72.644470000">
<ele>0</ele>
<time>2026-09-04T07:23:36Z</time>
</trkpt>
<trkpt lat="46.374250000" lon="-72.637130000">
<ele>0</ele>
<time>2026-09-04T07:23:37Z</time>
</trkpt>
<trkpt lat="46.371680000" lon="-72.629510000">
<ele>0</ele>
<time>2026-09-04T07:23:38Z</time>
</trkpt>
<trkpt lat="46.371210000" lon="-72.628100000">
<ele>0</ele>
<time>2026-09-04T07:23:39Z</time>
</trkpt>
<trkpt lat="46.370010000" lon="-72.624350000">
<ele>0</ele>
<time>2026-09-04T07:23:40Z</time>
</trkpt>
<trkpt lat="46.368140000" lon="-72.619090000">
<ele>0</ele>
<time>2026-09-04T07:23:41Z</time>
</trkpt>
<trkpt lat="46.366300000" lon="-72.613470000">
<ele>0</ele>
<time>2026-09-04T07:23:42Z</time>
</trkpt>
<trkpt lat="46.365480000" lon="-72.611080000">
<ele>0</ele>
<time>2026-09-04T07:23:43Z</time>
</trkpt>
<trkpt lat="46.365090000" lon="-72.609990000">
<ele>0</ele>
<time>2026-09-04T07:23:44Z</time>
</trkpt>
<trkpt lat="46.364770000" lon="-72.609240000">
<ele>0</ele>
<time>2026-09-04T07:23:45Z</time>
</trkpt>
<trkpt lat="46.364410000" lon="-72.608490000">
<ele>0</ele>
<time>2026-09-04T07:23:46Z</time>
</trkpt>
<trkpt lat="46.363790000" lon="-72.607460000">
<ele>0</ele>
<time>2026-09-04T07:23:47Z</time>
</trkpt>
<trkpt lat="46.363180000" lon="-72.606660000">
<ele>0</ele>
<time>2026-09-04T07:23:48Z</time>
</trkpt>
<trkpt lat="46.363000000" lon="-72.606330000">
<ele>0</ele>
<time>2026-09-04T07:23:49Z</time>
</trkpt>
<trkpt lat="46.362930000" lon="-72.606230000">
<ele>0</ele>
<time>2026-09-04T07:23:50Z</time>
</trkpt>
<trkpt lat="46.362730000" lon="-72.606020000">
<ele>0</ele>
<time>2026-09-04T07:23:51Z</time>
</trkpt>
<trkpt lat="46.362500000" lon="-72.605840000">
<ele>0</ele>
<time>2026-09-04T07:23:52Z</time>
</trkpt>
<trkpt lat="46.361230000" lon="-72.604870000">
<ele>0</ele>
<time>2026-09-04T07:23:53Z</time>
</trkpt>
<trkpt lat="46.361200000" lon="-72.604820000">
<ele>0</ele>
<time>2026-09-04T07:23:54Z</time>
</trkpt>
<trkpt lat="46.361020000" lon="-72.604420000">
<ele>0</ele>
<time>2026-09-04T07:23:55Z</time>
</trkpt>
<trkpt lat="46.360940000" lon="-72.604360000">
<ele>0</ele>
<time>2026-09-04T07:23:56Z</time>
</trkpt>
<trkpt lat="46.360700000" lon="-72.604410000">
<ele>0</ele>
<time>2026-09-04T07:23:57Z</time>
</trkpt>
<trkpt lat="46.360610000" lon="-72.604410000">
<ele>0</ele>
<time>2026-09-04T07:23:58Z</time>
</trkpt>
<trkpt lat="46.359890000" lon="-72.603800000">
<ele>0</ele>
<time>2026-09-04T07:23:59Z</time>
</trkpt>
<trkpt lat="46.359030000" lon="-72.603070000">
<ele>0</ele>
<time>2026-09-04T07:24:00Z</time>
</trkpt>
<trkpt lat="46.358490000" lon="-72.602650000">
<ele>0</ele>
<time>2026-09-04T07:24:01Z</time>
</trkpt>
<trkpt lat="46.358230000" lon="-72.602520000">
<ele>0</ele>
<time>2026-09-04T07:24:02Z</time>
</trkpt>
<trkpt lat="46.357910000" lon="-72.602290000">
<ele>0</ele>
<time>2026-09-04T07:24:03Z</time>
</trkpt>
<trkpt lat="46.357400000" lon="-72.601820000">
<ele>0</ele>
<time>2026-09-04T07:24:04Z</time>
</trkpt>
<trkpt lat="46.357190000" lon="-72.601690000">
<ele>0</ele>
<time>2026-09-04T07:24:05Z</time>
</trkpt>
<trkpt lat="46.357040000" lon="-72.601630000">
<ele>0</ele>
<time>2026-09-04T07:24:06Z</time>
</trkpt>
<trkpt lat="46.356780000" lon="-72.601450000">
<ele>0</ele>
<time>2026-09-04T07:24:07Z</time>
</trkpt>
<trkpt lat="46.356400000" lon="-72.601220000">
<ele>0</ele>
<time>2026-09-04T07:24:08Z</time>
</trkpt>
<trkpt lat="46.356220000" lon="-72.601140000">
<ele>0</ele>
<time>2026-09-04T07:24:09Z</time>
</trkpt>
<trkpt lat="46.355680000" lon="-72.600690000">
<ele>0</ele>
<time>2026-09-04T07:24:10Z</time>
</trkpt>
<trkpt lat="46.355420000" lon="-72.600520000">
<ele>0</ele>
<time>2026-09-04T07:24:11Z</time>
</trkpt>
<trkpt lat="46.354950000" lon="-72.600150000">
<ele>0</ele>
<time>2026-09-04T07:24:12Z</time>
</trkpt>
<trkpt lat="46.354780000" lon="-72.599890000">
<ele>0</ele>
<time>2026-09-04T07:24:13Z</time>
</trkpt>
<trkpt lat="46.354120000" lon="-72.598900000">
<ele>0</ele>
<time>2026-09-04T07:24:14Z</time>
</trkpt>
<trkpt lat="46.354050000" lon="-72.598850000">
<ele>0</ele>
<time>2026-09-04T07:24:15Z</time>
</trkpt>
<trkpt lat="46.353980000" lon="-72.598840000">
<ele>0</ele>
<time>2026-09-04T07:24:16Z</time>
</trkpt>
<trkpt lat="46.353810000" lon="-72.598860000">
<ele>0</ele>
<time>2026-09-04T07:24:17Z</time>
</trkpt>
<trkpt lat="46.353770000" lon="-72.598870000">
<ele>0</ele>
<time>2026-09-04T07:24:18Z</time>
</trkpt>
<trkpt lat="46.353670000" lon="-72.598950000">
<ele>0</ele>
<time>2026-09-04T07:24:19Z</time>
</trkpt>
<trkpt lat="46.353640000" lon="-72.599040000">
<ele>0</ele>
<time>2026-09-04T07:24:20Z</time>
</trkpt>
<trkpt lat="46.353640000" lon="-72.599090000">
<ele>0</ele>
<time>2026-09-04T07:24:21Z</time>
</trkpt>
<trkpt lat="46.353640000" lon="-72.599090000">
<ele>0</ele>
<time>2026-09-04T07:24:22Z</time>
</trkpt>
<trkpt lat="46.353580000" lon="-72.600220000">
<ele>0</ele>
<time>2026-09-04T07:24:23Z</time>
</trkpt>
<trkpt lat="46.353590000" lon="-72.601110000">
<ele>0</ele>
<time>2026-09-04T07:24:24Z</time>
</trkpt>
<trkpt lat="46.353570000" lon="-72.602060000">
<ele>0</ele>
<time>2026-09-04T07:24:25Z</time>
</trkpt>
<trkpt lat="46.353560000" lon="-72.602590000">
<ele>0</ele>
<time>2026-09-04T07:24:26Z</time>
</trkpt>
<trkpt lat="46.353530000" lon="-72.602700000">
<ele>0</ele>
<time>2026-09-04T07:24:27Z</time>
</trkpt>
<trkpt lat="46.353470000" lon="-72.602800000">
<ele>0</ele>
<time>2026-09-04T07:24:28Z</time>
</trkpt>
<trkpt lat="46.353410000" lon="-72.603540000">
<ele>0</ele>
<time>2026-09-04T07:24:29Z</time>
</trkpt>
<trkpt lat="46.353410000" lon="-72.603540000">
<ele>0</ele>
<time>2026-09-04T07:24:30Z</time>
</trkpt>
<trkpt lat="46.353240000" lon="-72.604840000">
<ele>0</ele>
<time>2026-09-04T07:24:31Z</time>
</trkpt>
<trkpt lat="46.353040000" lon="-72.606370000">
<ele>0</ele>
<time>2026-09-04T07:24:32Z</time>
</trkpt>
<trkpt lat="46.352720000" lon="-72.607320000">
<ele>0</ele>
<time>2026-09-04T07:24:33Z</time>
</trkpt>
<trkpt lat="46.352670000" lon="-72.607410000">
<ele>0</ele>
<time>2026-09-04T07:24:34Z</time>
</trkpt>
<trkpt lat="46.352290000" lon="-72.607970000">
<ele>0</ele>
<time>2026-09-04T07:24:35Z</time>
</trkpt>
<trkpt lat="46.351100000" lon="-72.609700000">
<ele>0</ele>
<time>2026-09-04T07:24:36Z</time>
</trkpt>
<trkpt lat="46.350200000" lon="-72.611070000">
<ele>0</ele>
<time>2026-09-04T07:24:37Z</time>
</trkpt>
<trkpt lat="46.348950000" lon="-72.612940000">
<ele>0</ele>
<time>2026-09-04T07:24:38Z</time>
</trkpt>
<trkpt lat="46.348320000" lon="-72.613560000">
<ele>0</ele>
<time>2026-09-04T07:24:39Z</time>
</trkpt>
<trkpt lat="46.347450000" lon="-72.614180000">
<ele>0</ele>
<time>2026-09-04T07:24:40Z</time>
</trkpt>
<trkpt lat="46.346660000" lon="-72.614200000">
<ele>0</ele>
<time>2026-09-04T07:24:41Z</time>
</trkpt>
<trkpt lat="46.345560000" lon="-72.614170000">
<ele>0</ele>
<time>2026-09-04T07:24:42Z</time>
</trkpt>
<trkpt lat="46.344660000" lon="-72.614180000">
<ele>0</ele>
<time>2026-09-04T07:24:43Z</time>
</trkpt>
<trkpt lat="46.343040000" lon="-72.614190000">
<ele>0</ele>
<time>2026-09-04T07:24:44Z</time>
</trkpt>
<trkpt lat="46.342560000" lon="-72.614080000">
<ele>0</ele>
<time>2026-09-04T07:24:45Z</time>
</trkpt>
<trkpt lat="46.342070000" lon="-72.613740000">
<ele>0</ele>
<time>2026-09-04T07:24:46Z</time>
</trkpt>
<trkpt lat="46.341910000" lon="-72.613610000">
<ele>0</ele>
<time>2026-09-04T07:24:47Z</time>
</trkpt>
<trkpt lat="46.341330000" lon="-72.612730000">
<ele>0</ele>
<time>2026-09-04T07:24:48Z</time>
</trkpt>
<trkpt lat="46.340500000" lon="-72.611360000">
<ele>0</ele>
<time>2026-09-04T07:24:49Z</time>
</trkpt>
<trkpt lat="46.339930000" lon="-72.610470000">
<ele>0</ele>
<time>2026-09-04T07:24:50Z</time>
</trkpt>
<trkpt lat="46.339320000" lon="-72.609670000">
<ele>0</ele>
<time>2026-09-04T07:24:51Z</time>
</trkpt>
<trkpt lat="46.338550000" lon="-72.608700000">
<ele>0</ele>
<time>2026-09-04T07:24:52Z</time>
</trkpt>
<trkpt lat="46.337950000" lon="-72.608020000">
<ele>0</ele>
<time>2026-09-04T07:24:53Z</time>
</trkpt>
<trkpt lat="46.337890000" lon="-72.607940000">
<ele>0</ele>
<time>2026-09-04T07:24:54Z</time>
</trkpt>
<trkpt lat="46.338120000" lon="-72.607580000">
<ele>0</ele>
<time>2026-09-04T07:24:55Z</time>
</trkpt>
<trkpt lat="46.338130000" lon="-72.607570000">
<ele>0</ele>
<time>2026-09-04T07:24:56Z</time>
</trkpt>
<trkpt lat="46.338130000" lon="-72.607570000">
<ele>0</ele>
<time>2026-09-04T07:24:57Z</time>
</trkpt>
<trkpt lat="46.339110000" lon="-72.605890000">
<ele>0</ele>
<time>2026-09-04T07:24:58Z</time>
</trkpt>
<trkpt lat="46.339370000" lon="-72.605500000">
<ele>0</ele>
<time>2026-09-04T07:24:59Z</time>
</trkpt>
<trkpt lat="46.340650000" lon="-72.603630000">
<ele>0</ele>
<time>2026-09-04T07:25:00Z</time>
</trkpt>
<trkpt lat="46.340790000" lon="-72.603420000">
<ele>0</ele>
<time>2026-09-04T07:25:01Z</time>
</trkpt>
<trkpt lat="46.340870000" lon="-72.603220000">
<ele>0</ele>
<time>2026-09-04T07:25:02Z</time>
</trkpt>
<trkpt lat="46.340900000" lon="-72.602920000">
<ele>0</ele>
<time>2026-09-04T07:25:03Z</time>
</trkpt>
<trkpt lat="46.340910000" lon="-72.600720000">
<ele>0</ele>
<time>2026-09-04T07:25:04Z</time>
</trkpt>
<trkpt lat="46.340920000" lon="-72.598650000">
<ele>0</ele>
<time>2026-09-04T07:25:05Z</time>
</trkpt>
<trkpt lat="46.340900000" lon="-72.598460000">
<ele>0</ele>
<time>2026-09-04T07:25:06Z</time>
</trkpt>
<trkpt lat="46.340820000" lon="-72.598080000">
<ele>0</ele>
<time>2026-09-04T07:25:07Z</time>
</trkpt>
<trkpt lat="46.340720000" lon="-72.597850000">
<ele>0</ele>
<time>2026-09-04T07:25:08Z</time>
</trkpt>
<trkpt lat="46.340040000" lon="-72.596810000">
<ele>0</ele>
<time>2026-09-04T07:25:09Z</time>
</trkpt>
<trkpt lat="46.339220000" lon="-72.595680000">
<ele>0</ele>
<time>2026-09-04T07:25:10Z</time>
</trkpt>
<trkpt lat="46.339050000" lon="-72.595500000">
<ele>0</ele>
<time>2026-09-04T07:25:11Z</time>
</trkpt>
<trkpt lat="46.338990000" lon="-72.595480000">
<ele>0</ele>
<time>2026-09-04T07:25:12Z</time>
</trkpt>
<trkpt lat="46.338880000" lon="-72.595420000">
<ele>0</ele>
<time>2026-09-04T07:25:13Z</time>
</trkpt>
<trkpt lat="46.338600000" lon="-72.595360000">
<ele>0</ele>
<time>2026-09-04T07:25:14Z</time>
</trkpt>
<trkpt lat="46.337190000" lon="-72.595300000">
<ele>0</ele>
<time>2026-09-04T07:25:15Z</time>
</trkpt>
<trkpt lat="46.336930000" lon="-72.595290000">
<ele>0</ele>
<time>2026-09-04T07:25:16Z</time>
</trkpt>
<trkpt lat="46.336680000" lon="-72.595170000">
<ele>0</ele>
<time>2026-09-04T07:25:17Z</time>
</trkpt>
<trkpt lat="46.336530000" lon="-72.595060000">
<ele>0</ele>
<time>2026-09-04T07:25:18Z</time>
</trkpt>
<trkpt lat="46.336330000" lon="-72.594830000">
<ele>0</ele>
<time>2026-09-04T07:25:19Z</time>
</trkpt>
<trkpt lat="46.335840000" lon="-72.594060000">
<ele>0</ele>
<time>2026-09-04T07:25:20Z</time>
</trkpt>
<trkpt lat="46.335340000" lon="-72.593290000">
<ele>0</ele>
<time>2026-09-04T07:25:21Z</time>
</trkpt>
<trkpt lat="46.335280000" lon="-72.593130000">
<ele>0</ele>
<time>2026-09-04T07:25:22Z</time>
</trkpt>
<trkpt lat="46.334600000" lon="-72.592070000">
<ele>0</ele>
<time>2026-09-04T07:25:23Z</time>
</trkpt>
<trkpt lat="46.334340000" lon="-72.591690000">
<ele>0</ele>
<time>2026-09-04T07:25:24Z</time>
</trkpt>
<trkpt lat="46.333780000" lon="-72.590830000">
<ele>0</ele>
<time>2026-09-04T07:25:25Z</time>
</trkpt>
<trkpt lat="46.331900000" lon="-72.587870000">
<ele>0</ele>
<time>2026-09-04T07:25:26Z</time>
</trkpt>
<trkpt lat="46.330310000" lon="-72.585360000">
<ele>0</ele>
<time>2026-09-04T07:25:27Z</time>
</trkpt>
<trkpt lat="46.329540000" lon="-72.584170000">
<ele>0</ele>
<time>2026-09-04T07:25:28Z</time>
</trkpt>
<trkpt lat="46.328320000" lon="-72.582260000">
<ele>0</ele>
<time>2026-09-04T07:25:29Z</time>
</trkpt>
<trkpt lat="46.327980000" lon="-72.581750000">
<ele>0</ele>
<time>2026-09-04T07:25:30Z</time>
</trkpt>
<trkpt lat="46.327780000" lon="-72.581450000">
<ele>0</ele>
<time>2026-09-04T07:25:31Z</time>
</trkpt>
<trkpt lat="46.327410000" lon="-72.580800000">
<ele>0</ele>
<time>2026-09-04T07:25:32Z</time>
</trkpt>
<trkpt lat="46.327150000" lon="-72.580190000">
<ele>0</ele>
<time>2026-09-04T07:25:33Z</time>
</trkpt>
<trkpt lat="46.326900000" lon="-72.579420000">
<ele>0</ele>
<time>2026-09-04T07:25:34Z</time>
</trkpt>
<trkpt lat="46.326730000" lon="-72.579480000">
<ele>0</ele>
<time>2026-09-04T07:25:35Z</time>
</trkpt>
<trkpt lat="46.326730000" lon="-72.579480000">
<ele>0</ele>
<time>2026-09-04T07:25:36Z</time>
</trkpt>
<trkpt lat="46.326130000" lon="-72.579740000">
<ele>0</ele>
<time>2026-09-04T07:25:37Z</time>
</trkpt>
<trkpt lat="46.325910000" lon="-72.579870000">
<ele>0</ele>
<time>2026-09-04T07:25:38Z</time>
</trkpt>
<trkpt lat="46.325820000" lon="-72.579960000">
<ele>0</ele>
<time>2026-09-04T07:25:39Z</time>
</trkpt>
<trkpt lat="46.325220000" lon="-72.580520000">
<ele>0</ele>
<time>2026-09-04T07:25:40Z</time>
</trkpt>
<trkpt lat="46.324530000" lon="-72.581420000">
<ele>0</ele>
<time>2026-09-04T07:25:41Z</time>
</trkpt>
<trkpt lat="46.323570000" lon="-72.582590000">
<ele>0</ele>
<time>2026-09-04T07:25:42Z</time>
</trkpt>
<trkpt lat="46.323220000" lon="-72.582950000">
<ele>0</ele>
<time>2026-09-04T07:25:43Z</time>
</trkpt>
<trkpt lat="46.323060000" lon="-72.583040000">
<ele>0</ele>
<time>2026-09-04T07:25:44Z</time>
</trkpt>
<trkpt lat="46.322680000" lon="-72.583130000">
<ele>0</ele>
<time>2026-09-04T07:25:45Z</time>
</trkpt>
<trkpt lat="46.322430000" lon="-72.583100000">
<ele>0</ele>
<time>2026-09-04T07:25:46Z</time>
</trkpt>
<trkpt lat="46.322250000" lon="-72.583020000">
<ele>0</ele>
<time>2026-09-04T07:25:47Z</time>
</trkpt>
<trkpt lat="46.322120000" lon="-72.582940000">
<ele>0</ele>
<time>2026-09-04T07:25:48Z</time>
</trkpt>
<trkpt lat="46.321930000" lon="-72.582750000">
<ele>0</ele>
<time>2026-09-04T07:25:49Z</time>
</trkpt>
<trkpt lat="46.321930000" lon="-72.582750000">
<ele>0</ele>
<time>2026-09-04T07:25:50Z</time>
</trkpt>
<trkpt lat="46.321740000" lon="-72.582500000">
<ele>0</ele>
<time>2026-09-04T07:25:51Z</time>
</trkpt>
<trkpt lat="46.321190000" lon="-72.581600000">
<ele>0</ele>
<time>2026-09-04T07:25:52Z</time>
</trkpt>
<trkpt lat="46.320800000" lon="-72.580880000">
<ele>0</ele>
<time>2026-09-04T07:25:53Z</time>
</trkpt>
<trkpt lat="46.320560000" lon="-72.580250000">
<ele>0</ele>
<time>2026-09-04T07:25:54Z</time>
</trkpt>
<trkpt lat="46.320380000" lon="-72.579650000">
<ele>0</ele>
<time>2026-09-04T07:25:55Z</time>
</trkpt>
<trkpt lat="46.320150000" lon="-72.578130000">
<ele>0</ele>
<time>2026-09-04T07:25:56Z</time>
</trkpt>
<trkpt lat="46.319960000" lon="-72.577190000">
<ele>0</ele>
<time>2026-09-04T07:25:57Z</time>
</trkpt>
<trkpt lat="46.319670000" lon="-72.575940000">
<ele>0</ele>
<time>2026-09-04T07:25:58Z</time>
</trkpt>
<trkpt lat="46.319220000" lon="-72.575100000">
<ele>0</ele>
<time>2026-09-04T07:25:59Z</time>
</trkpt>
<trkpt lat="46.318830000" lon="-72.574450000">
<ele>0</ele>
<time>2026-09-04T07:26:00Z</time>
</trkpt>
<trkpt lat="46.317990000" lon="-72.573030000">
<ele>0</ele>
<time>2026-09-04T07:26:01Z</time>
</trkpt>
<trkpt lat="46.317490000" lon="-72.572290000">
<ele>0</ele>
<time>2026-09-04T07:26:02Z</time>
</trkpt>
<trkpt lat="46.317210000" lon="-72.571880000">
<ele>0</ele>
<time>2026-09-04T07:26:03Z</time>
</trkpt>
<trkpt lat="46.316900000" lon="-72.571350000">
<ele>0</ele>
<time>2026-09-04T07:26:04Z</time>
</trkpt>
<trkpt lat="46.316540000" lon="-72.570470000">
<ele>0</ele>
<time>2026-09-04T07:26:05Z</time>
</trkpt>
<trkpt lat="46.316370000" lon="-72.569830000">
<ele>0</ele>
<time>2026-09-04T07:26:06Z</time>
</trkpt>
<trkpt lat="46.316240000" lon="-72.569630000">
<ele>0</ele>
<time>2026-09-04T07:26:07Z</time>
</trkpt>
<trkpt lat="46.316240000" lon="-72.569630000">
<ele>0</ele>
<time>2026-09-04T07:26:08Z</time>
</trkpt>
<trkpt lat="46.315740000" lon="-72.568830000">
<ele>0</ele>
<time>2026-09-04T07:26:09Z</time>
</trkpt>
</trkseg>
</trk>
</gpx>
